Another Hard Day at the Office Weather Stats

 
 
 

High monthly outside Temperature, 22.8 , C
Low monthly outside Temperature, -1.0 , C
High yearly outside Temperature, 30.9 , C
Low yearly outside Temperature, -2.2 , C

Low monthly barometer, 1001.1 , mb
High monthly barometer, 1028.0 , mb
Low yearly barometer, 975.0 , mb
High yearly barometer 1041.1 , mb

High wind speed, 25.0 , mph
Time of High wind speed, 21:37 , mph
High monthly wind speed, 47.0 , mph
High yearly wind speed, 55.0 , mph

 

 




3126
                    Temp     Hi    Low   Out    Dew  Wind  Wind   Wind    Hi    Hi   Wind   Heat    THW                Rain    Heat    Cool    In     In    In     In     In   In Air  Wind  Wind    ISS   Arc.
  Date    Time     Out   Temp   Temp   Hum    Pt. Speed   Dir    Run Speed   Dir  Chill  Index  Index   Bar    Rain  Rate    D-D     D-D    Temp   Hum    Dew   Heat    EMC Density  Samp   Tx   Recept  Int.
---------------------------------------------------------------------------------------------------------------------------------------------------------------------------------------------------------------
21/05/18   0:05   11.8   11.8   11.8    85    9.3   1.0   ESE   0.08   4.0   ESE   11.8   11.7   11.7  1018.0  0.00  0.00   0.023   0.000   24.8    45   12.1   24.6   8.42  .0733    115    1    100.0    5 
21/05/18   0:10   11.7   11.8   11.7    85    9.3   1.0   ESE   0.08   4.0   ESE   11.7   11.7   11.7  1017.9  0.00  0.00   0.023   0.000   24.8    45   12.0   24.5   8.42  .0733    116    1    100.0    5 
21/05/18   0:15   11.6   11.7   11.6    85    9.2   2.0   ESE   0.17   5.0   ESE   11.6   11.6   11.6  1017.9  0.00  0.00   0.023   0.000   24.8    45   12.0   24.5   8.42  .0733    117    1    100.0    5 
21/05/18   0:20   11.6   11.7   11.6    86    9.3   3.0   ESE   0.25   7.0   ESE   11.6   11.6   11.6  1018.1  0.00  0.00   0.023   0.000   24.8    45   12.0   24.5   8.42  .0733    117    1    100.0    5 
21/05/18   0:25   11.6   11.6   11.6    86    9.3   3.0   ESE   0.25   8.0   ESE   11.6   11.6   11.6  1018.1  0.00  0.00   0.024   0.000   24.7    45   12.0   24.5   8.42  .0733    116    1    100.0    5 
21/05/18   0:30   11.6   11.6   11.6    85    9.1   3.0     E   0.25   8.0   ESE   11.6   11.5   11.5  1018.0  0.00  0.00   0.024   0.000   24.7    45   12.0   24.5   8.42  .0733    117    1    100.0    5 
21/05/18   0:35   11.6   11.6   11.6    86    9.3   4.0     E   0.33   8.0     E   11.2   11.6   11.2  1018.0  0.00  0.00   0.024   0.000   24.7    45   11.9   24.4   8.42  .0734    116    1    100.0    5 
21/05/18   0:40   11.5   11.6   11.5    85    9.1   4.0     E   0.33   9.0   ENE   11.1   11.4   11.1  1017.9  0.00  0.00   0.024   0.000   24.6    45   11.9   24.4   8.42  .0734    117    1    100.0    5 
21/05/18   0:45   11.4   11.5   11.4    85    9.0   4.0   ENE   0.33   8.0   ENE   11.1   11.4   11.0  1017.9  0.00  0.00   0.024   0.000   24.6    45   11.9   24.4   8.42  .0734    117    1    100.0    5 
21/05/18   0:50   11.4   11.4   11.4    85    9.0   5.0   ENE   0.42   7.0   ENE   10.7   11.4   10.7  1017.8  0.00  0.00   0.024   0.000   24.6    45   11.9   24.4   8.42  .0734    117    1    100.0    5 
21/05/18   0:55   11.3   11.4   11.3    85    8.9   5.0   ENE   0.42   7.0   ENE   10.6   11.3   10.6  1017.9  0.00  0.00   0.024   0.000   24.6    44   11.5   24.3   8.23  .0734    115    1    100.0    5 
21/05/18   1:00   11.3   11.3   11.3    85    8.8   4.0   ENE   0.33   8.0   ENE   10.8   11.3   10.8  1017.7  0.00  0.00   0.024   0.000   24.6    44   11.5   24.3   8.23  .0734    117    1    100.0    5 
21/05/18   1:05   11.2   11.3   11.2    85    8.8   4.0   ENE   0.33   7.0   ENE   10.8   11.2   10.8  1017.7  0.00  0.00   0.025   0.000   24.5    44   11.4   24.2   8.23  .0734    115    1    100.0    5 
21/05/18   1:10   11.2   11.2   11.2    85    8.7   2.0   ENE   0.17   5.0   ENE   11.2   11.2   11.2  1017.6  0.00  0.00   0.025   0.000   24.4    45   11.7   24.2   8.43  .0734    118    1    100.0    5 
21/05/18   1:15   11.2   11.2   11.2    85    8.7   4.0   ENE   0.33   7.0   ENE   10.7   11.2   10.7  1017.5  0.00  0.00   0.025   0.000   24.4    45   11.7   24.2   8.43  .0734    117    1    100.0    5 
21/05/18   1:20   11.2   11.2   11.2    85    8.7   3.0   ENE   0.25   6.0   ENE   11.1   11.2   11.1  1017.5  0.00  0.00   0.025   0.000   24.4    45   11.7   24.2   8.43  .0734    116    1    100.0    5 
21/05/18   1:25   11.1   11.2   11.1    85    8.7   4.0   ENE   0.33   8.0   ENE   10.7   11.1   10.7  1017.4  0.00  0.00   0.025   0.000   24.4    44   11.3   24.1   8.23  .0734    117    1    100.0    5 
21/05/18   1:30   11.1   11.1   11.1    85    8.6   4.0   ENE   0.33   7.0   ENE   10.6   11.1   10.6  1017.4  0.00  0.00   0.025   0.000   24.4    44   11.3   24.1   8.23  .0734    117    1    100.0    5 
21/05/18   1:35   11.1   11.1   11.1    85    8.6   5.0   ENE   0.42   8.0   ENE   10.3   11.1   10.3  1017.4  0.00  0.00   0.025   0.000   24.4    44   11.3   24.1   8.23  .0734    117    1    100.0    5 
21/05/18   1:40   11.1   11.1   11.0    85    8.6   4.0   ENE   0.33   8.0   ENE   10.6   11.1   10.6  1017.4  0.00  0.00   0.025   0.000   24.3    44   11.2   24.0   8.24  .0735    116    1    100.0    5 
21/05/18   1:45   11.0   11.1   11.0    85    8.6   5.0   ENE   0.42   8.0   ENE   10.2   11.0   10.2  1017.3  0.00  0.00   0.025   0.000   24.3    44   11.2   24.0   8.24  .0735    117    1    100.0    5 
21/05/18   1:50   11.0   11.0   11.0    85    8.6   4.0   ENE   0.33   9.0   ENE   10.6   11.0   10.6  1017.2  0.00  0.00   0.025   0.000   24.2    44   11.2   23.9   8.24  .0735    116    1    100.0    5 
21/05/18   1:55   10.9   11.0   10.9    85    8.5   6.0   ENE   0.50   8.0   ENE    9.8   10.9    9.8  1017.2  0.00  0.00   0.026   0.000   24.2    44   11.2   23.9   8.24  .0735    117    1    100.0    5 
21/05/18   2:00   10.9   11.0   10.9    85    8.5   5.0   ENE   0.42   9.0   ENE   10.1   10.9   10.1  1017.2  0.00  0.00   0.026   0.000   24.2    44   11.1   23.9   8.24  .0735    117    1    100.0    5 
21/05/18   2:05   10.9   10.9   10.9    85    8.5   6.0    NE   0.50   8.0    NE    9.8   10.9    9.8  1017.0  0.00  0.00   0.026   0.000   24.1    44   11.1   23.9   8.24  .0735    116    1    100.0    5 
21/05/18   2:10   10.9   10.9   10.9    85    8.5   5.0    NE   0.42   9.0    NE   10.1   10.9   10.1  1017.0  0.00  0.00   0.026   0.000   24.1    44   11.1   23.9   8.24  .0735    117    1    100.0    5 
21/05/18   2:15   10.9   10.9   10.9    85    8.5   2.0    NE   0.17   4.0    NE   10.9   10.9   10.9  1016.9  0.00  0.00   0.026   0.000   24.1    44   11.0   23.8   8.24  .0735    116    1    100.0    5 
21/05/18   2:20   10.8   10.9   10.8    85    8.4   4.0    NE   0.33   8.0    NE   10.3   10.8   10.3  1016.9  0.00  0.00   0.026   0.000   24.1    44   11.0   23.8   8.24  .0735    117    1    100.0    5 
21/05/18   2:25   10.8   10.8   10.8    85    8.4   3.0    NE   0.25   7.0    NE   10.8   10.8   10.8  1016.7  0.00  0.00   0.026   0.000   24.1    44   11.0   23.8   8.24  .0735    117    1    100.0    5 
21/05/18   2:30   10.8   10.8   10.8    85    8.4   4.0    NE   0.33   7.0    NE   10.3   10.8   10.3  1016.8  0.00  0.00   0.026   0.000   24.0    44   11.0   23.8   8.25  .0735    116    1    100.0    5 
21/05/18   2:35   10.8   10.8   10.8    85    8.4   3.0    NE   0.25   8.0    NE   10.7   10.8   10.7  1016.7  0.00  0.00   0.026   0.000   24.0    44   11.0   23.8   8.25  .0735    117    1    100.0    5 
21/05/18   2:40   10.8   10.8   10.8    84    8.2   3.0    NE   0.25   7.0    NE   10.7   10.8   10.7  1016.7  0.00  0.00   0.026   0.000   23.9    44   10.9   23.7   8.25  .0735    116    1    100.0    5 
21/05/18   2:45   10.8   10.8   10.8    84    8.2   3.0    NE   0.25   7.0    NE   10.7   10.8   10.7  1016.6  0.00  0.00   0.026   0.000   23.9    44   10.9   23.7   8.25  .0735    117    1    100.0    5 
21/05/18   2:50   10.8   10.8   10.8    84    8.2   2.0    NE   0.17   5.0    NE   10.8   10.8   10.8  1016.5  0.00  0.00   0.026   0.000   23.9    44   10.9   23.7   8.25  .0735    117    1    100.0    5 
21/05/18   2:55   10.7   10.8   10.7    84    8.1   4.0    NE   0.33   7.0    NE   10.2   10.7   10.2  1016.5  0.00  0.00   0.026   0.000   23.9    44   10.9   23.7   8.25  .0735    116    1    100.0    5 
21/05/18   3:00   10.7   10.7   10.7    84    8.1   3.0    NE   0.25   5.0    NE   10.6   10.7   10.6  1016.5  0.00  0.00   0.026   0.000   23.9    44   10.9   23.7   8.25  .0735    117    1    100.0    5 
21/05/18   3:05   10.7   10.7   10.7    84    8.1   2.0    NE   0.17   5.0    NE   10.7   10.7   10.7  1016.5  0.00  0.00   0.026   0.000   23.9    44   10.9   23.7   8.25  .0735    113    1     99.1    5 
21/05/18   3:10   10.7   10.7   10.7    84    8.1   1.0    NE   0.08   4.0    NE   10.7   10.7   10.7  1016.4  0.00  0.00   0.027   0.000   23.8    44   10.8   23.6   8.25  .0735    116    1    100.0    5 
21/05/18   3:15   10.7   10.7   10.7    84    8.1   3.0    NE   0.25   5.0    NE   10.6   10.7   10.6  1016.4  0.00  0.00   0.026   0.000   23.8    44   10.8   23.6   8.25  .0735    118    1    100.0    5 
21/05/18   3:20   10.7   10.7   10.7    84    8.1   4.0    NE   0.33   7.0    NE   10.2   10.7   10.2  1016.4  0.00  0.00   0.026   0.000   23.8    44   10.8   23.6   8.25  .0735    116    1    100.0    5 
21/05/18   3:25   10.7   10.7   10.7    84    8.1   4.0    NE   0.33  10.0    NE   10.2   10.7   10.2  1016.3  0.00  0.00   0.026   0.000   23.8    44   10.8   23.6   8.25  .0735    117    1    100.0    5 
21/05/18   3:30   10.8   10.8   10.7    84    8.2   5.0    NE   0.42  10.0    NE    9.9   10.8    9.9  1016.2  0.00  0.00   0.026   0.000   23.8    43   10.4   23.5   8.06  .0735    117    1    100.0    5 
21/05/18   3:35   10.8   10.8   10.8    84    8.2   4.0    NE   0.33   8.0    NE   10.3   10.8   10.3  1016.1  0.00  0.00   0.026   0.000   23.8    43   10.4   23.5   8.06  .0735    117    1    100.0    5 
21/05/18   3:40   10.9   10.9   10.8    84    8.3   4.0    NE   0.33   8.0    NE   10.4   10.9   10.4  1016.2  0.00  0.00   0.026   0.000   23.7    43   10.4   23.4   8.06  .0736    116    1    100.0    5 
21/05/18   3:45   10.9   10.9   10.8    83    8.1   4.0    NE   0.33   8.0    NE   10.4   10.8   10.3  1016.2  0.00  0.00   0.026   0.000   23.7    43   10.3   23.3   8.07  .0736    117    1    100.0    5 
21/05/18   3:50   10.9   10.9   10.9    83    8.2   6.0    NE   0.50  10.0    NE    9.8   10.9    9.8  1016.2  0.00  0.00   0.026   0.000   23.7    43   10.3   23.3   8.07  .0736    115    1    100.0    5 
21/05/18   3:55   10.9   11.0   10.9    83    8.2   7.0   NNE   0.58  11.0   NNE    9.6   10.9    9.5  1016.1  0.00  0.00   0.026   0.000   23.7    43   10.3   23.3   8.07  .0736    115    1    100.0    5 
21/05/18   4:00   11.0   11.0   10.9    83    8.2   6.0   NNE   0.50  10.0   NNE    9.9   10.9    9.8  1016.1  0.00  0.00   0.025   0.000   23.7    43   10.3   23.3   8.07  .0736    116    1    100.0    5 
21/05/18   4:05   11.0   11.0   10.9    83    8.2   7.0   NNE   0.58  11.0   NNE    9.7   10.9    9.6  1015.9  0.00  0.00   0.025   0.000   23.6    43   10.2   23.2   8.07  .0736    116    1    100.0    5 
21/05/18   4:10   11.0   11.0   10.9    83    8.2   7.0   NNE   0.58  10.0   NNE    9.7   10.9    9.6  1016.0  0.00  0.00   0.025   0.000   23.5    43   10.2   23.1   8.08  .0736    115    1    100.0    5 
21/05/18   4:15   11.0   11.0   10.9    83    8.2   6.0   NNE   0.50  10.0   NNE    9.9   10.9    9.8  1015.9  0.00  0.00   0.025   0.000   23.4    43   10.1   23.1   8.08  .0736    117    1    100.0    5 
21/05/18   4:20   11.0   11.0   11.0    83    8.2   5.0   NNE   0.42   9.0   NNE   10.2   10.9   10.2  1015.9  0.00  0.00   0.025   0.000   23.4    43   10.1   23.0   8.09  .0736    118    1    100.0    5 
21/05/18   4:25   10.9   11.0   10.9    83    8.2   5.0   NNE   0.42   8.0   NNE   10.1   10.9   10.1  1015.7  0.00  0.00   0.026   0.000   23.3    43   10.0   22.9   8.09  .0736    117    1    100.0    5 
21/05/18   4:30   10.9   10.9   10.9    83    8.2   6.0   NNE   0.50  10.0   NNE    9.8   10.9    9.8  1015.8  0.00  0.00   0.026   0.000   23.3    43   10.0   22.9   8.09  .0736    117    1    100.0    5 
21/05/18   4:35   10.9   10.9   10.9    83    8.2   6.0   NNE   0.50   9.0   NNE    9.8   10.9    9.8  1015.7  0.00  0.00   0.026   0.000   23.3    43   10.0   22.8   8.09  .0737    116    1    100.0    5 
21/05/18   4:40   10.9   10.9   10.9    83    8.2   7.0   NNE   0.58  11.0   NNE    9.6   10.9    9.5  1015.6  0.00  0.00   0.026   0.000   23.2    43    9.9   22.8   8.10  .0737    116    1    100.0    5 
21/05/18   4:45   11.0   11.0   10.9    83    8.2   6.0   NNE   0.50  11.0   NNE    9.9   10.9    9.8  1015.6  0.00  0.00   0.025   0.000   23.2    43    9.9   22.8   8.10  .0737    115    1    100.0    5 
21/05/18   4:50   11.0   11.0   11.0    83    8.2   5.0   NNE   0.42   8.0   NNE   10.2   10.9   10.2  1015.6  0.00  0.00   0.025   0.000   23.2    43    9.9   22.7   8.10  .0737    116    1    100.0    5 
21/05/18   4:55   11.0   11.0   11.0    82    8.0   5.0   NNE   0.42   9.0   NNE   10.2   10.9   10.2  1015.6  0.00  0.00   0.025   0.000   23.1    43    9.8   22.6   8.11  .0737    117    1    100.0    5 
21/05/18   5:00   11.0   11.0   11.0    82    8.0   5.0   NNE   0.42  10.0   NNE   10.2   10.9   10.2  1015.6  0.00  0.00   0.025   0.000   23.1    44   10.2   22.7   8.28  .0737    115    1    100.0    5 
21/05/18   5:05   11.0   11.0   11.0    82    8.0   5.0   NNE   0.42   9.0   NNE   10.2   10.9   10.2  1015.5  0.00  0.00   0.025   0.000   23.1    44   10.1   22.6   8.28  .0737    117    1    100.0    5 
21/05/18   5:10   11.0   11.0   11.0    83    8.2   3.0   NNE   0.25   5.0   NNE   10.9   10.9   10.9  1015.5  0.00  0.00   0.025   0.000   23.1    44   10.1   22.6   8.28  .0737    117    1    100.0    5 
21/05/18   5:15   11.0   11.0   11.0    82    8.0   3.0   NNE   0.25   6.0   NNE   10.9   10.9   10.9  1015.5  0.00  0.00   0.025   0.000   23.1    44   10.1   22.6   8.28  .0737    116    1    100.0    5 
21/05/18   5:20   11.0   11.0   11.0    82    8.0   1.0   NNE   0.08   4.0   NNE   11.0   10.9   10.9  1015.5  0.00  0.00   0.025   0.000   23.1    44   10.1   22.6   8.28  .0737    116    1    100.0    5 
21/05/18   5:25   11.1   11.1   11.0    83    8.3   0.0   NNE   0.00   3.0   NNE   11.1   11.0   11.0  1015.5  0.00  0.00   0.025   0.000   23.1    44   10.1   22.6   8.28  .0737    118    1    100.0    5 
21/05/18   5:30   11.0   11.1   11.0    83    8.2   0.0   NNE   0.00   4.0   NNE   11.0   10.9   10.9  1015.5  0.00  0.00   0.025   0.000   23.1    44   10.1   22.6   8.28  .0737    117    1    100.0    5 
21/05/18   5:35   11.1   11.1   11.0    83    8.3   1.0   NNE   0.08   5.0   NNE   11.1   11.0   11.0  1015.6  0.00  0.00   0.025   0.000   23.1    44   10.1   22.6   8.28  .0737    116    1    100.0    5 
21/05/18   5:40   11.1   11.1   11.0    83    8.3   1.0   NNE   0.08   5.0   NNE   11.1   11.0   11.0  1015.6  0.00  0.00   0.025   0.000   23.1    44   10.2   22.7   8.28  .0737    116    1    100.0    5 
21/05/18   5:45   11.1   11.1   11.1    83    8.3   2.0   NNE   0.17   4.0   NNE   11.1   11.1   11.1  1015.5  0.00  0.00   0.025   0.000   23.1    44   10.1   22.6   8.28  .0737    116    1    100.0    5 
21/05/18   5:50   11.2   11.2   11.1    83    8.4   2.0   NNE   0.17   6.0   NNE   11.2   11.1   11.1  1015.6  0.00  0.00   0.025   0.000   23.1    44   10.2   22.7   8.28  .0737    116    1    100.0    5 
21/05/18   5:55   11.2   11.2   11.2    83    8.4   3.0   NNE   0.25   5.0   NNE   11.2   11.2   11.1  1015.6  0.00  0.00   0.025   0.000   23.1    44   10.2   22.7   8.28  .0737    114    1    100.0    5 
21/05/18   6:00   11.3   11.3   11.2    83    8.5   1.0   NNE   0.08   3.0   NNE   11.3   11.2   11.2  1015.5  0.00  0.00   0.024   0.000   23.1    44   10.2   22.7   8.28  .0737    116    1    100.0    5 
21/05/18   6:05   11.3   11.3   11.3    84    8.7   4.0   NNE   0.33   6.0   NNE   10.9   11.3   10.8  1015.5  0.00  0.00   0.024   0.000   23.1    44   10.2   22.7   8.28  .0737    117    1    100.0    5 
21/05/18   6:10   11.4   11.4   11.3    84    8.8   4.0   NNE   0.33   8.0   NNE   11.0   11.3   10.9  1015.5  0.00  0.00   0.024   0.000   23.1    44   10.2   22.7   8.28  .0737    117    1    100.0    5 
21/05/18   6:15   11.4   11.4   11.3    84    8.8   6.0   NNE   0.50   8.0   NNE   10.4   11.4   10.3  1015.5  0.00  0.00   0.024   0.000   23.1    44   10.2   22.7   8.28  .0737    114    1    100.0    5 
21/05/18   6:20   11.5   11.6   11.4    84    8.9   2.0   NNE   0.17   5.0   NNE   11.5   11.4   11.4  1015.5  0.00  0.00   0.024   0.000   23.1    44   10.2   22.7   8.28  .0737    117    1    100.0    5 
21/05/18   6:25   11.6   11.6   11.6    84    9.0   4.0   NNE   0.33   7.0   NNE   11.2   11.6   11.2  1015.5  0.00  0.00   0.023   0.000   23.1    44   10.2   22.7   8.28  .0737    114    1    100.0    5 
21/05/18   6:30   11.7   11.7   11.6    84    9.1   4.0   NNE   0.33   7.0   NNE   11.3   11.7   11.3  1015.4  0.00  0.00   0.023   0.000   23.1    44   10.1   22.6   8.28  .0737    118    1    100.0    5 
21/05/18   6:35   11.8   11.8   11.7    84    9.2   4.0   NNE   0.33   9.0   NNE   11.4   11.7   11.3  1015.4  0.00  0.00   0.023   0.000   23.1    44   10.2   22.7   8.28  .0737    115    1    100.0    5 
21/05/18   6:40   11.9   11.9   11.8    84    9.3   5.0   NNE   0.42   9.0   NNE   11.2   11.8   11.2  1015.4  0.00  0.00   0.022   0.000   23.1    44   10.1   22.6   8.28  .0737    117    1    100.0    5 
21/05/18   6:45   11.9   11.9   11.9    84    9.3   6.0   NNE   0.50  10.0   NNE   11.0   11.9   10.9  1015.3  0.00  0.00   0.022   0.000   23.1    44   10.1   22.6   8.28  .0737    116    1    100.0    5 
21/05/18   6:50   11.9   11.9   11.9    84    9.3   6.0   NNE   0.50   9.0   NNE   11.0   11.9   10.9  1015.4  0.00  0.00   0.022   0.000   23.1    44   10.1   22.6   8.28  .0737    116    1    100.0    5 
21/05/18   6:55   12.0   12.0   11.9    84    9.4   5.0   NNE   0.42   8.0   NNE   11.3   11.9   11.3  1015.3  0.00  0.00   0.022   0.000   23.1    44   10.1   22.6   8.28  .0737    115    1    100.0    5 
21/05/18   7:00   12.0   12.0   12.0    84    9.4   6.0   NNE   0.50  10.0   NNE   11.1   11.9   11.0  1015.3  0.00  0.00   0.022   0.000   23.1    44   10.1   22.6   8.28  .0737    115    1    100.0    5 
21/05/18   7:05   12.1   12.1   12.0    84    9.5   7.0   NNE   0.58  10.0   NNE   11.0   12.1   10.9  1015.3  0.00  0.00   0.022   0.000   23.1    44   10.1   22.6   8.28  .0737    116    1    100.0    5 
21/05/18   7:10   12.2   12.2   12.1    84    9.5   7.0   NNE   0.58  10.0   NNE   11.1   12.1   11.0  1015.3  0.00  0.00   0.021   0.000   23.0    44   10.1   22.5   8.28  .0737    116    1    100.0    5 
21/05/18   7:15   12.3   12.3   12.2    84    9.7   7.0   NNE   0.58  10.0   NNE   11.2   12.2   11.1  1015.3  0.00  0.00   0.021   0.000   23.0    44   10.1   22.5   8.28  .0737    117    1    100.0    5 
21/05/18   7:20   12.4   12.4   12.3    84    9.8   6.0   NNE   0.50   9.0   NNE   11.6   12.3   11.5  1015.3  0.00  0.00   0.021   0.000   22.9    44   10.0   22.4   8.28  .0737    116    1    100.0    5 
21/05/18   7:25   12.6   12.6   12.4    84    9.9   5.0   NNE   0.42   8.0   NNE   12.0   12.5   11.9  1015.4  0.00  0.00   0.020   0.000   22.9    45   10.4   22.5   8.45  .0737    116    1    100.0    5 
21/05/18   7:30   12.7   12.7   12.6    84   10.0   4.0   NNE   0.33   6.0   NNE   12.4   12.6   12.4  1015.4  0.00  0.00   0.020   0.000   22.9    45   10.4   22.5   8.45  .0737    117    1    100.0    5 
21/05/18   7:35   12.8   12.8   12.7    84   10.2   5.0   NNE   0.42   8.0   NNE   12.3   12.8   12.3  1015.4  0.00  0.00   0.019   0.000   22.9    45   10.4   22.5   8.45  .0737    117    1    100.0    5 
21/05/18   7:40   13.0   13.0   12.8    84   10.4   5.0   NNE   0.42   9.0   NNE   12.6   12.9   12.5  1015.3  0.00  0.00   0.019   0.000   22.9    45   10.3   22.4   8.45  .0737    117    1    100.0    5 
21/05/18   7:45   13.1   13.1   13.0    83   10.3   5.0   NNE   0.42   9.0     N   12.7   13.0   12.6  1015.3  0.00  0.00   0.018   0.000   22.9    45   10.4   22.5   8.45  .0737    117    1    100.0    5 
21/05/18   7:50   13.2   13.2   13.1    83   10.4   6.0     N   0.50   9.0     N   12.6   13.1   12.4  1015.4  0.00  0.00   0.018   0.000   22.9    45   10.4   22.5   8.45  .0737    115    1    100.0    5 
21/05/18   7:55   13.3   13.3   13.2    83   10.5   4.0     N   0.33   7.0     N   13.2   13.2   13.1  1015.4  0.00  0.00   0.017   0.000   23.0    45   10.4   22.6   8.45  .0737    105    1     92.1    5 
21/05/18   8:00   13.5   13.5   13.3    83   10.7   4.0     N   0.33   6.0     N   13.4   13.4   13.3  1015.4  0.00  0.00   0.017   0.000   23.2    45   10.6   22.8   8.45  .0736    117    1    100.0    5 
21/05/18   8:05   13.7   13.7   13.5    83   10.8   4.0     N   0.33   7.0     N   13.6   13.6   13.5  1015.4  0.00  0.00   0.016   0.000   23.3    44   10.4   22.9   8.27  .0736    115    1    100.0    5 
21/05/18   8:10   13.9   13.9   13.7    82   10.9   4.0     N   0.33   7.0     N   13.9   13.8   13.8  1015.4  0.00  0.00   0.015   0.000   23.5    44   10.5   23.2   8.26  .0735    116    1    100.0    5 
21/05/18   8:15   14.2   14.2   13.9    82   11.1   3.0     N   0.25   6.0     N   14.2   14.1   14.1  1015.3  0.00  0.00   0.014   0.000   23.7    44   10.7   23.4   8.26  .0735    117    1    100.0    5 
21/05/18   8:20   14.4   14.4   14.2    82   11.4   4.0     N   0.33   7.0     N   14.4   14.3   14.3  1015.4  0.00  0.00   0.014   0.000   23.9    43   10.5   23.6   8.05  .0735    116    1    100.0    5 
21/05/18   8:25   14.7   14.7   14.5    81   11.4   5.0   NNE   0.42   9.0   NNE   14.5   14.6   14.4  1015.3  0.00  0.00   0.013   0.000   24.1    43   10.7   23.8   8.05  .0734    117    1    100.0    5 
21/05/18   8:30   14.7   14.7   14.7    80   11.3   5.0   NNE   0.42   9.0   NNE   14.6   14.6   14.4  1015.4  0.00  0.00   0.013   0.000   24.2    43   10.8   23.9   8.05  .0733    115    1    100.0    5 
21/05/18   8:35   14.8   14.8   14.7    79   11.2   6.0   NNE   0.50   8.0   NNE   14.4   14.7   14.3  1015.4  0.00  0.00   0.012   0.000   24.3    43   10.9   24.0   8.05  .0733    117    1    100.0    5 
21/05/18   8:40   15.2   15.2   14.8    80   11.7   5.0   NNE   0.42   8.0   NNE   15.1   15.1   15.0  1015.3  0.00  0.00   0.011   0.000   24.4    43   11.0   24.1   8.05  .0733    117    1    100.0    5 
21/05/18   8:45   15.8   15.8   15.2    80   12.3   4.0   NNE   0.33   9.0    NE   15.8   15.7   15.7  1015.3  0.00  0.00   0.009   0.000   24.3    43   10.9   24.0   8.05  .0733    116    1    100.0    5 
21/05/18   8:50   16.3   16.3   15.8    78   12.5   6.0   NNE   0.50  11.0   NNE   16.3   16.3   16.2  1015.3  0.00  0.00   0.007   0.000   24.3    43   10.9   24.0   8.05  .0733    117    1    100.0    5 
21/05/18   8:55   16.6   16.6   16.3    76   12.4   4.0    NE   0.33   8.0    NE   16.6   16.6   16.6  1015.3  0.00  0.00   0.006   0.000   24.3    43   10.9   23.9   8.05  .0733    116    1    100.0    5 
21/05/18   9:00   16.8   16.8   16.6    76   12.6   5.0    NE   0.42   9.0    NE   16.8   16.8   16.8  1015.2  0.00  0.00   0.005   0.000   24.2    44   11.1   23.9   8.24  .0733    117    1    100.0    5 
21/05/18   9:05   17.2   17.2   16.8    76   13.0   4.0    NE   0.33   9.0    NE   17.2   17.2   17.2  1015.3  0.00  0.00   0.004   0.000   24.1    44   11.0   23.8   8.24  .0734    116    1    100.0    5 
21/05/18   9:10   17.6   17.6   17.2    74   12.9   3.0    NE   0.25   7.0    NE   17.6   17.6   17.6  1015.3  0.00  0.00   0.003   0.000   24.0    44   11.0   23.8   8.25  .0734    117    1    100.0    5 
21/05/18   9:15   18.0   18.0   17.7    74   13.3   3.0    NE   0.25   9.0    NE   18.0   18.1   18.1  1015.3  0.00  0.00   0.001   0.000   24.0    44   11.0   23.8   8.25  .0734    117    1    100.0    5 
21/05/18   9:20   18.3   18.3   18.0    73   13.4   4.0    NE   0.33   7.0    NE   18.3   18.4   18.4  1015.2  0.00  0.00   0.000   0.000   24.0    44   11.0   23.8   8.25  .0734    117    1    100.0    5 
21/05/18   9:25   18.6   18.6   18.3    72   13.4   4.0    NE   0.33   9.0    NE   18.6   18.7   18.7  1015.2  0.00  0.00   0.000   0.001   24.0    44   11.0   23.8   8.25  .0734    116    1    100.0    5 
21/05/18   9:30   18.9   18.9   18.6    73   13.9   3.0    NE   0.25   5.0    NE   18.9   19.1   19.1  1015.2  0.00  0.00   0.000   0.002   24.0    44   11.0   23.8   8.25  .0734    117    1    100.0    5 
21/05/18   9:35   19.1   19.1   18.9    71   13.7   4.0   ENE   0.33  10.0    NE   19.1   19.2   19.2  1015.2  0.00  0.00   0.000   0.003   24.0    44   11.0   23.8   8.25  .0734    117    1    100.0    5 
21/05/18   9:40   19.1   19.1   19.1    71   13.7   4.0    NE   0.33   9.0    NE   19.1   19.2   19.2  1015.1  0.00  0.00   0.000   0.003   24.1    44   11.0   23.8   8.24  .0734    118    1    100.0    5 
21/05/18   9:45   19.3   19.3   19.1    70   13.7   4.0    NE   0.33   8.0    NE   19.3   19.6   19.6  1015.0  0.00  0.00   0.000   0.003   24.1    44   11.0   23.8   8.24  .0734    115    1    100.0    5 
21/05/18   9:50   19.6   19.6   19.3    69   13.7   3.0    NE   0.25   9.0    NE   19.6   19.8   19.8  1015.0  0.00  0.00   0.000   0.004   24.1    44   11.1   23.9   8.24  .0733    115    1    100.0    5 
21/05/18   9:55   19.7   19.7   19.6    69   13.8   3.0   NNE   0.25   8.0   NNE   19.7   19.9   19.9  1015.0  0.00  0.00   0.000   0.005   24.2    44   11.1   23.9   8.24  .0733    117    1    100.0    5 
21/05/18  10:00   19.6   19.7   19.6    68   13.5   4.0   NNE   0.33   9.0   NNE   19.6   19.7   19.7  1014.9  0.00  0.00   0.000   0.004   24.2    44   11.2   23.9   8.24  .0733    116    1    100.0    5 
21/05/18  10:05   19.4   19.6   19.4    68   13.3   5.0   NNE   0.42   8.0   NNE   19.4   19.5   19.5  1014.9  0.00  0.00   0.000   0.004   24.2    44   11.2   23.9   8.24  .0733    117    1    100.0    5 
21/05/18  10:10   19.3   19.4   19.3    69   13.4   4.0   NNE   0.33   8.0   NNE   19.3   19.4   19.4  1014.9  0.00  0.00   0.000   0.003   24.2    44   11.2   23.9   8.24  .0733    115    1    100.0    5 
21/05/18  10:15   19.5   19.5   19.3    70   13.9   4.0   NNE   0.33   8.0    NE   19.5   19.7   19.7  1015.0  0.00  0.00   0.000   0.004   24.3    44   11.2   24.0   8.24  .0733    117    1    100.0    5 
21/05/18  10:20   19.7   19.7   19.5    69   13.9   6.0    NE   0.50  10.0    NE   19.7   19.9   19.9  1015.0  0.00  0.00   0.000   0.005   24.3    45   11.6   24.1   8.43  .0732    117    1    100.0    5 
21/05/18  10:25   19.6   19.8   19.6    67   13.3   7.0   NNE   0.58  10.0    NE   19.6   19.7   19.7  1014.9  0.00  0.00   0.000   0.004   24.3    45   11.6   24.1   8.43  .0732    117    1    100.0    5 
21/05/18  10:30   19.3   19.6   19.3    68   13.2   5.0   NNE   0.42   9.0   NNE   19.3   19.4   19.4  1014.8  0.00  0.00   0.000   0.003   24.4    45   11.7   24.2   8.43  .0732    116    1    100.0    5 
21/05/18  10:35   19.1   19.3   19.1    69   13.2   4.0    NE   0.33   8.0    NE   19.1   19.2   19.2  1014.8  0.00  0.00   0.000   0.003   24.4    45   11.7   24.2   8.43  .0732    116    1    100.0    5 
21/05/18  10:40   19.1   19.1   19.1    69   13.2   4.0    NE   0.33  10.0   NNE   19.1   19.2   19.2  1014.8  0.00  0.00   0.000   0.003   24.4    45   11.7   24.2   8.43  .0732    118    1    100.0    5 
21/05/18  10:45   19.1   19.1   19.1    69   13.3   5.0   NNE   0.42   9.0   NNE   19.1   19.2   19.2  1014.8  0.00  0.00   0.000   0.003   24.4    45   11.7   24.2   8.43  .0732    117    1    100.0    5 
21/05/18  10:50   19.2   19.2   19.1    69   13.4   6.0    NE   0.50  11.0   NNE   19.2   19.3   19.3  1014.8  0.00  0.00   0.000   0.003   24.4    45   11.7   24.2   8.43  .0732    117    1    100.0    5 
21/05/18  10:55   19.3   19.3   19.2    70   13.7   4.0   NNE   0.33   8.0    NE   19.3   19.4   19.4  1014.9  0.00  0.00   0.000   0.003   24.5    45   11.8   24.3   8.43  .0732    116    1    100.0    5 
21/05/18  11:00   19.4   19.4   19.3    69   13.6   5.0   NNE   0.42  10.0   NNE   19.4   19.6   19.6  1014.8  0.00  0.00   0.000   0.004   24.5    45   11.8   24.3   8.43  .0732    117    1    100.0    5 
21/05/18  11:05   19.4   19.4   19.4    70   13.8   4.0   NNE   0.33   9.0    NE   19.4   19.7   19.7  1014.8  0.00  0.00   0.000   0.004   24.6    45   11.8   24.3   8.43  .0732    117    1    100.0    5 
21/05/18  11:10   19.6   19.6   19.4    69   13.7   5.0    NE   0.42   9.0    NE   19.6   19.8   19.8  1014.7  0.00  0.00   0.000   0.004   24.6    45   11.8   24.3   8.43  .0732    116    1    100.0    5 
21/05/18  11:15   19.7   19.7   19.6    70   14.1   4.0    NE   0.33   9.0    NE   19.7   20.0   20.0  1014.7  0.00  0.00   0.000   0.005   24.6    45   11.8   24.3   8.43  .0732    117    1    100.0    5 
21/05/18  11:20   19.9   19.9   19.7    69   14.1   5.0   NNE   0.42  10.0   NNE   19.9   20.2   20.2  1014.8  0.00  0.00   0.000   0.006   24.6    45   11.9   24.4   8.42  .0731    116    1    100.0    5 
21/05/18  11:25   20.3   20.3   19.9    69   14.5   7.0     E   0.58   9.0     E   20.3   20.6   20.6  1014.8  0.00  0.00   0.000   0.007   24.7    45   11.9   24.4   8.42  .0731    117    1    100.0    5 
21/05/18  11:30   20.8   20.8   20.3    69   14.9   5.0   ESE   0.42   8.0   ESE   20.8   20.9   20.9  1014.8  0.00  0.00   0.000   0.008   24.7    45   12.0   24.5   8.42  .0731    117    1    100.0    5 
21/05/18  11:35   21.1   21.1   20.8    67   14.7   5.0   ESE   0.42   9.0   ESE   21.1   21.0   21.0  1014.7  0.00  0.00   0.000   0.009   24.7    45   12.0   24.5   8.42  .0731    116    1    100.0    5 
21/05/18  11:40   21.4   21.4   21.1    67   15.0   4.0   ESE   0.33   6.0   ESE   21.4   21.4   21.4  1014.7  0.00  0.00   0.000   0.011   24.8    46   12.4   24.6   8.52  .0731    117    1    100.0    5 
21/05/18  11:45   21.6   21.6   21.4    67   15.2   4.0   ESE   0.33   6.0   ESE   21.6   21.6   21.6  1014.7  0.00  0.00   0.000   0.011   24.8    46   12.4   24.6   8.52  .0730    118    1    100.0    5 
21/05/18  11:50   21.8   21.8   21.6    68   15.6   3.0   ESE   0.25   6.0   ESE   21.8   21.9   21.9  1014.6  0.00  0.00   0.000   0.012   24.9    45   12.1   24.6   8.41  .0730    116    1    100.0    5 
21/05/18  11:55   22.2   22.2   21.8    67   15.8   3.0   ESE   0.25   6.0   ESE   22.2   22.5   22.5  1014.6  0.00  0.00   0.000   0.014   24.9    45   12.1   24.6   8.41  .0730    116    1    100.0    5 
21/05/18  12:00   22.7   22.7   22.2    65   15.7   5.0   ESE   0.42   7.0   ESE   22.7   23.0   23.0  1014.6  0.00  0.00   0.000   0.015   24.9    45   12.2   24.7   8.41  .0730    117    1    100.0    5 
21/05/18  12:05   23.2   23.2   22.7    64   16.0   4.0   ESE   0.33   6.0   ESE   23.2   23.7   23.7  1014.6  0.00  0.00   0.000   0.017   25.0    45   12.2   24.7   8.41  .0730    116    1    100.0    5 
21/05/18  12:10   23.7   23.7   23.2    64   16.5   3.0   ESE   0.25   4.0   ESE   23.7   24.3   24.3  1014.5  0.00  0.00   0.000   0.019   25.1    45   12.3   24.8   8.41  .0730    115    1    100.0    5 
21/05/18  12:15   24.1   24.1   23.7    61   16.1   3.0   ESE   0.25   5.0   ESE   24.1   24.6   24.6  1014.4  0.00  0.00   0.000   0.020   25.1    45   12.3   24.8   8.41  .0730    116    1    100.0    5 
21/05/18  12:20   24.5   24.5   24.1    59   16.0   4.0   ESE   0.33   6.0   ESE   24.5   24.8   24.8  1014.4  0.00  0.00   0.000   0.021   25.2    45   12.4   24.9   8.40  .0729    117    1    100.0    5 
21/05/18  12:25   24.6   24.6   24.5    57   15.5   4.0   ESE   0.33   7.0   ESE   24.6   24.9   24.9  1014.4  0.00  0.00   0.000   0.022   25.2    45   12.4   24.9   8.40  .0729    117    1    100.0    5 
21/05/18  12:30   24.4   24.6   24.4    57   15.4   4.0   ESE   0.33   6.0   ESE   24.4   24.7   24.7  1014.4  0.00  0.00   0.000   0.021   25.3    45   12.5   25.1   8.40  .0729    115    1    100.0    5 
21/05/18  12:35   24.1   24.4   24.1    58   15.3   2.0   ESE   0.17   4.0   ESE   24.1   24.5   24.5  1014.3  0.00  0.00   0.000   0.020   25.3    45   12.5   25.1   8.40  .0729    117    1    100.0    5 
21/05/18  12:40   23.8   24.1   23.8    59   15.3   3.0   ESE   0.25   5.0   ESE   23.8   24.2   24.2  1014.4  0.00  0.00   0.000   0.019   25.3    45   12.5   25.1   8.40  .0729    117    1    100.0    5 
21/05/18  12:45   23.5   23.8   23.5    59   15.0   3.0   ESE   0.25   5.0   ESE   23.5   23.9   23.9  1014.3  0.00  0.00   0.000   0.018   25.4    45   12.6   25.2   8.40  .0729    118    1    100.0    5 
21/05/18  12:50   23.3   23.5   23.3    60   15.1   3.0   ESE   0.25   5.0   ESE   23.3   23.7   23.7  1014.2  0.00  0.00   0.000   0.017   25.4    45   12.6   25.2   8.40  .0729    117    1    100.0    5 
21/05/18  12:55   23.2   23.3   23.2    60   15.0   3.0   ESE   0.25   6.0   ESE   23.2   23.5   23.5  1014.2  0.00  0.00   0.000   0.017   25.4    45   12.6   25.2   8.40  .0729    116    1    100.0    5 
21/05/18  13:00   23.1   23.2   23.1    59   14.6   4.0   ESE   0.33   5.0   ESE   23.1   23.3   23.3  1014.1  0.00  0.00   0.000   0.016   25.4    45   12.6   25.2   8.39  .0728    116    1    100.0    5 
21/05/18  13:05   23.0   23.1   23.0    60   14.8   3.0   ESE   0.25   5.0   ESE   23.0   23.3   23.3  1014.0  0.00  0.00   0.000   0.016   25.4    45   12.6   25.2   8.39  .0728    116    1    100.0    5 
21/05/18  13:10   23.0   23.0   22.9    60   14.8   3.0   ESE   0.25   5.0   ESE   23.0   23.3   23.3  1014.0  0.00  0.00   0.000   0.016   25.5    45   12.7   25.3   8.39  .0728    117    1    100.0    5 
21/05/18  13:15   23.0   23.0   23.0    58   14.3   2.0   ESE   0.17   4.0   ESE   23.0   23.2   23.2  1014.0  0.00  0.00   0.000   0.016   25.5    45   12.7   25.3   8.39  .0728    117    1    100.0    5 
21/05/18  13:20   23.0   23.1   23.0    59   14.6   2.0   ESE   0.17   4.0   ESE   23.0   23.2   23.2  1013.9  0.00  0.00   0.000   0.016   25.6    45   12.7   25.3   8.39  .0728    116    1    100.0    5 
21/05/18  13:25   22.8   23.0   22.8    58   14.1   2.0   ESE   0.17   4.0   ESE   22.8   23.0   23.0  1013.9  0.00  0.00   0.000   0.016   25.6    45   12.7   25.3   8.39  .0728    117    1    100.0    5 
21/05/18  13:30   22.7   22.8   22.7    58   14.0   2.0   ESE   0.17   4.0   ESE   22.7   22.7   22.7  1013.9  0.00  0.00   0.000   0.015   25.6    45   12.8   25.4   8.39  .0728    116    1    100.0    5 
21/05/18  13:35   22.1   22.7   22.1    58   13.4   2.0   ESE   0.17   4.0   ESE   22.1   21.8   21.8  1013.8  0.00  0.00   0.000   0.013   25.7    45   12.8   25.4   8.39  .0727    115    1    100.0    5 
21/05/18  13:40   21.2   22.0   21.2    62   13.6   2.0   ESE   0.17   3.0   ESE   21.2   20.9   20.9  1013.8  0.00  0.00   0.000   0.010   25.7    45   12.8   25.4   8.39  .0727    117    1    100.0    5 
21/05/18  13:45   20.6   21.2   20.6    63   13.3   1.0   ESE   0.08   3.0   ESE   20.6   20.4   20.4  1013.8  0.00  0.00   0.000   0.008   25.7    45   12.9   25.5   8.38  .0727    117    1    100.0    5 
21/05/18  13:50   20.2   20.6   20.2    63   12.9   1.0   ESE   0.08   3.0   ESE   20.2   20.2   20.2  1013.8  0.00  0.00   0.000   0.007   25.7    45   12.9   25.5   8.38  .0727    118    1    100.0    5 
21/05/18  13:55   20.1   20.2   20.1    67   13.7   1.0   ESE   0.08   3.0   ESE   20.1   20.2   20.2  1013.8  0.00  0.00   0.000   0.006   25.7    45   12.9   25.5   8.38  .0727    117    1    100.0    5 
21/05/18  14:00   20.0   20.1   20.0    66   13.5   1.0   ESE   0.08   3.0   ESE   20.0   20.2   20.2  1013.8  0.00  0.00   0.000   0.006   25.8    45   12.9   25.6   8.38  .0727    117    1    100.0    5 
21/05/18  14:05   20.0   20.1   20.0    65   13.2   0.0   ESE   0.00   2.0   ESE   20.0   20.1   20.1  1013.7  0.00  0.00   0.000   0.006   25.8    45   12.9   25.6   8.38  .0727    116    1    100.0    5 
21/05/18  14:10   19.9   20.0   19.9    66   13.4   1.0   ESE   0.08   2.0   ESE   19.9   20.1   20.1  1013.7  0.00  0.00   0.000   0.006   25.8    45   13.0   25.6   8.38  .0727    117    1    100.0    5 
21/05/18  14:15   19.7   19.9   19.7    65   12.9   1.0   ESE   0.08   3.0   ESE   19.7   19.7   19.7  1013.7  0.00  0.00   0.000   0.005   25.9    45   13.0   25.7   8.38  .0727    116    1    100.0    5 
21/05/18  14:20   19.6   19.7   19.6    69   13.7   1.0   ESE   0.08   3.0   ESE   19.6   19.8   19.8  1013.7  0.00  0.00   0.000   0.004   25.9    45   13.0   25.7   8.38  .0727    117    1    100.0    5 
21/05/18  14:25   19.4   19.6   19.4    68   13.4   4.0   ESE   0.33   7.0   ESE   19.4   19.6   19.6  1013.6  0.00  0.00   0.000   0.004   25.9    45   13.0   25.7   8.38  .0727    117    1    100.0    5 
21/05/18  14:30   19.2   19.4   19.2    69   13.3   5.0   ESE   0.42   8.0    SE   19.2   19.3   19.3  1013.5  0.00  0.00   0.000   0.003   25.9    45   13.0   25.7   8.38  .0727    117    1    100.0    5 
21/05/18  14:35   18.9   19.2   18.9    70   13.3   5.0    SE   0.42   7.0    SE   18.9   19.1   19.1  1013.5  0.00  0.00   0.000   0.002   25.9    45   13.0   25.7   8.38  .0727    117    1    100.0    5 
21/05/18  14:40   18.8   18.9   18.8    71   13.4   3.0    SE   0.25   6.0    SE   18.8   18.9   18.9  1013.4  0.00  0.00   0.000   0.002   25.9    45   13.1   25.8   8.38  .0726    117    1    100.0    5 
21/05/18  14:45   18.7   18.8   18.7    72   13.6   3.0    SE   0.25   4.0    SE   18.7   18.9   18.9  1013.3  0.00  0.00   0.000   0.001   25.9    45   13.1   25.8   8.38  .0726    117    1    100.0    5 
21/05/18  14:50   18.8   18.8   18.7    72   13.7   2.0    SE   0.17   4.0    SE   18.8   19.0   19.0  1013.4  0.00  0.00   0.000   0.002   26.0    45   13.1   25.8   8.37  .0726    117    1    100.0    5 
21/05/18  14:55   19.1   19.1   18.8    72   13.9   2.0    SE   0.17   3.0    SE   19.1   19.3   19.3  1013.3  0.00  0.00   0.000   0.003   26.0    45   13.1   25.8   8.37  .0726    116    1    100.0    5 
21/05/18  15:00   19.4   19.4   19.1    71   14.0   2.0    SE   0.17   4.0    SE   19.4   19.6   19.6  1013.3  0.00  0.00   0.000   0.004   26.1    45   13.2   25.9   8.37  .0726    117    1    100.0    5 
21/05/18  15:05   19.7   19.7   19.4    68   13.6   3.0   SSW   0.25   4.0   SSW   19.7   19.9   19.9  1013.3  0.00  0.00   0.000   0.005   26.1    45   13.2   25.9   8.37  .0726    115    1    100.0    5 
21/05/18  15:10   19.9   19.9   19.7    66   13.4   1.0   SSW   0.08   4.0   SSW   19.9   20.1   20.1  1013.4  0.00  0.00   0.000   0.006   26.1    45   13.2   25.9   8.37  .0726    116    1    100.0    5 
21/05/18  15:15   19.9   20.0   19.9    63   12.7   5.0   NNW   0.42  11.0   NNW   19.9   19.9   19.9  1013.2  0.00  0.00   0.000   0.006   26.1    45   13.2   25.9   8.37  .0726    117    1    100.0    5 
21/05/18  15:20   19.9   19.9   19.9    63   12.6   6.0     N   0.50  10.0   NNW   19.9   19.9   19.9  1013.1  0.00  0.00   0.000   0.005   26.1    45   13.2   25.9   8.37  .0726    116    1    100.0    5 
21/05/18  15:25   19.8   19.9   19.8    63   12.5   4.0     N   0.33   8.0     N   19.8   19.7   19.7  1013.1  0.00  0.00   0.000   0.005   26.2    44   13.0   25.9   8.17  .0726    117    1    100.0    5 
21/05/18  15:30   19.6   19.7   19.6    63   12.3   5.0   NNW   0.42   8.0   NNW   19.6   19.4   19.4  1013.0  0.00  0.00   0.000   0.004   26.2    45   13.3   26.0   8.37  .0725    117    1    100.0    5 
21/05/18  15:35   19.4   19.6   19.4    63   12.2   4.0   NNW   0.33   8.0   NNW   19.4   19.3   19.3  1013.0  0.00  0.00   0.000   0.004   26.2    45   13.3   26.0   8.37  .0725    117    1    100.0    5 
21/05/18  15:40   19.4   19.4   19.4    65   12.6   4.0   NNW   0.33   6.0   NNW   19.4   19.4   19.4  1013.0  0.00  0.00   0.000   0.004   26.2    45   13.3   26.0   8.37  .0725    117    1    100.0    5 
21/05/18  15:45   19.3   19.4   19.3    66   12.8   3.0   NNW   0.25   6.0   NNW   19.3   19.3   19.3  1013.0  0.00  0.00   0.000   0.003   26.2    45   13.3   26.1   8.37  .0725    117    1    100.0    5 
21/05/18  15:50   19.3   19.3   19.3    66   12.8   1.0   NNW   0.08   4.0   NNW   19.3   19.3   19.3  1012.9  0.00  0.00   0.000   0.003   26.2    45   13.3   26.1   8.37  .0725    117    1    100.0    5 
21/05/18  15:55   19.3   19.3   19.3    67   13.0   2.0   NNW   0.17   5.0   NNW   19.3   19.3   19.3  1012.9  0.00  0.00   0.000   0.003   26.2    45   13.3   26.1   8.37  .0725    118    1    100.0    5 
21/05/18  16:00   19.4   19.4   19.3    67   13.1   1.0   NNW   0.08   4.0   NNW   19.4   19.4   19.4  1012.9  0.00  0.00   0.000   0.004   26.2    45   13.3   26.1   8.37  .0725    116    1    100.0    5 
21/05/18  16:05   19.5   19.5   19.4    68   13.4   1.0   NNW   0.08   3.0   NNW   19.5   19.7   19.7  1012.8  0.00  0.00   0.000   0.004   26.3    45   13.4   26.1   8.36  .0725    116    1    100.0    5 
21/05/18  16:10   19.7   19.7   19.5    68   13.6   1.0   NNW   0.08   5.0   NNW   19.7   19.9   19.9  1012.8  0.00  0.00   0.000   0.005   26.3    45   13.4   26.2   8.36  .0725    117    1    100.0    5 
21/05/18  16:15   20.1   20.1   19.7    67   13.8   2.0   NNW   0.17   6.0     N   20.1   20.3   20.3  1012.6  0.00  0.00   0.000   0.006   26.3    44   13.1   26.1   8.16  .0725    117    1    100.0    5 
21/05/18  16:20   20.6   20.6   20.2    65   13.8   3.0     N   0.25   7.0     N   20.6   20.6   20.6  1012.6  0.00  0.00   0.000   0.008   26.3    44   13.1   26.1   8.16  .0725    117    1    100.0    5 
21/05/18  16:25   21.0   21.0   20.6    63   13.7   4.0     N   0.33   9.0     N   21.0   20.7   20.7  1012.6  0.00  0.00   0.000   0.009   26.4    44   13.2   26.1   8.16  .0725    117    1    100.0    5 
21/05/18  16:30   21.3   21.3   21.1    61   13.5   6.0     N   0.50  11.0     N   21.3   20.9   20.9  1012.5  0.00  0.00   0.000   0.010   26.4    44   13.2   26.1   8.16  .0725    116    1    100.0    5 
21/05/18  16:35   21.6   21.6   21.3    61   13.8   5.0     N   0.42   8.0     N   21.6   21.4   21.4  1012.5  0.00  0.00   0.000   0.011   26.4    44   13.2   26.2   8.16  .0724    115    1    100.0    5 
21/05/18  16:40   21.9   21.9   21.6    59   13.6   7.0   NNE   0.58  13.0   NNW   21.9   21.7   21.7  1012.5  0.00  0.00   0.000   0.013   26.5    44   13.3   26.2   8.16  .0724    116    1    100.0    5 
21/05/18  16:45   22.3   22.3   21.9    59   13.9   8.0     N   0.67  15.0   NNE   22.0   22.2   21.9  1012.5  0.00  0.00   0.000   0.014   26.5    43   12.9   26.2   8.05  .0724    117    1    100.0    5 
21/05/18  16:50   22.7   22.7   22.3    57   13.7   7.0     N   0.58  11.0   NNE   22.7   22.7   22.7  1012.4  0.00  0.00   0.000   0.015   26.6    44   13.3   26.3   8.15  .0724    117    1    100.0    5 
21/05/18  16:55   23.0   23.0   22.7    55   13.5   6.0     N   0.50  12.0   NNE   23.0   23.1   23.1  1012.3  0.00  0.00   0.000   0.016   26.6    43   13.0   26.2   8.05  .0724    117    1    100.0    5 
21/05/18  17:00   23.2   23.2   23.0    55   13.7   7.0   NNW   0.58  10.0    NW   23.2   23.3   23.3  1012.3  0.00  0.00   0.000   0.017   26.6    44   13.4   26.3   8.15  .0724    118    1    100.0    5 
21/05/18  17:05   23.4   23.4   23.2    54   13.6   6.0     N   0.50  12.0    NW   23.4   23.6   23.6  1012.3  0.00  0.00   0.000   0.018   26.7    44   13.4   26.4   8.15  .0724    117    1    100.0    5 
21/05/18  17:10   23.4   23.4   23.4    55   13.9   7.0     N   0.58  11.0     N   23.4   23.6   23.6  1012.3  0.00  0.00   0.000   0.018   26.7    44   13.5   26.4   8.15  .0723    117    1    100.0    5 
21/05/18  17:15   23.3   23.4   23.3    53   13.2   8.0    NE   0.67  12.0   NNE   23.1   23.3   23.1  1012.3  0.00  0.00   0.000   0.017   26.7    43   13.1   26.4   8.05  .0724    117    1    100.0    5 
21/05/18  17:20   23.5   23.5   23.3    56   14.2   6.0   ESE   0.50  11.0    NE   23.5   23.7   23.7  1012.5  0.00  0.00   0.000   0.018   26.8    43   13.2   26.4   8.05  .0724    116    1    100.0    5 
21/05/18  17:25   23.7   23.7   23.5    57   14.6   3.0   ESE   0.25   8.0   ESE   23.7   24.0   24.0  1012.5  0.00  0.00   0.000   0.019   26.8    43   13.2   26.4   8.05  .0724    117    1    100.0    5 
21/05/18  17:30   23.3   23.7   23.3    57   14.3   8.0    SE   0.67  11.0    SE   23.1   23.6   23.3  1012.4  0.00  0.00   0.000   0.017   26.8    43   13.2   26.5   8.04  .0723    117    1    100.0    5 
21/05/18  17:35   22.3   23.3   22.3    59   13.9   8.0    SE   0.67  11.0    SE   22.1   22.3   22.0  1012.4  0.00  0.00   0.000   0.014   26.8    43   13.2   26.4   8.05  .0724    117    1    100.0    5 
21/05/18  17:40   21.6   22.3   21.6    62   14.0   6.0    SE   0.50   7.0    SE   21.6   21.4   21.4  1012.5  0.00  0.00   0.000   0.011   26.7    44   13.5   26.4   8.15  .0724    117    1    100.0    5 
21/05/18  17:45   21.1   21.6   21.1    64   14.0   5.0    SE   0.42   7.0    SE   21.1   20.9   20.9  1012.7  0.00  0.00   0.000   0.010   26.7    44   13.5   26.4   8.15  .0724    117    1    100.0    5 
21/05/18  17:50   21.1   21.1   21.1    66   14.5   4.0    SE   0.33   6.0    SE   21.1   20.9   20.9  1012.6  0.00  0.00   0.000   0.009   26.7    44   13.5   26.4   8.15  .0724    116    1    100.0    5 
21/05/18  17:55   21.0   21.1   21.0    65   14.2   4.0    SE   0.33   5.0    SE   21.0   20.8   20.8  1012.6  0.00  0.00   0.000   0.009   26.7    44   13.5   26.4   8.15  .0724    117    1    100.0    5 
21/05/18  18:00   20.2   20.9   20.2    67   13.9   3.0    SE   0.25   5.0    SE   20.2   20.4   20.4  1012.6  0.00  0.00   0.000   0.007   26.7    44   13.5   26.4   8.15  .0724    118    1    100.0    5 
21/05/18  18:05   18.7   20.2   18.7    69   12.9   3.0   SSE   0.25   5.0    SE   18.7   18.7   18.7  1012.6  0.00  0.00   0.000   0.001   26.8    44   13.5   26.5   8.15  .0723    117    1    100.0    5 
21/05/18  18:10   18.1   18.6   18.1    73   13.1   1.0   SSE   0.08   3.0   SSE   18.1   18.1   18.1  1012.7  0.00  0.00   0.001   0.000   26.8    44   13.5   26.5   8.15  .0724    117    1    100.0    5 
21/05/18  18:15   17.9   18.1   17.9    75   13.4   0.0   ---   0.00   0.0   ---   17.9   18.1   18.1  1012.8  0.02  0.12   0.001   0.000   26.8    44   13.6   26.6   8.15  .0723    116    1    100.0    5 
21/05/18  18:20   17.4   17.9   17.4    75   13.0   3.0   SSE   0.25   5.0   SSE   17.4   17.4   17.4  1012.6  0.01  0.18   0.003   0.000   26.8    44   13.6   26.6   8.15  .0723    117    1    100.0    5 
21/05/18  18:25   17.1   17.4   17.1    76   12.8   4.0    SW   0.33   7.0     S   17.1   17.1   17.1  1012.6  0.01  0.18   0.004   0.000   26.8    44   13.6   26.6   8.15  .0723    116    1    100.0    5 
21/05/18  18:30   16.7   17.1   16.7    78   12.9   5.0    SW   0.42   8.0    SW   16.7   16.7   16.7  1012.6  0.00  0.08   0.006   0.000   26.8    44   13.6   26.6   8.15  .0723    116    1    100.0    5 
21/05/18  18:35   16.6   16.7   16.6    79   13.0   4.0    SW   0.33   7.0    SW   16.6   16.7   16.7  1012.5  0.00  0.05   0.006   0.000   26.9    44   13.6   26.6   8.15  .0723    116    1    100.0    5 
21/05/18  18:40   16.7   16.7   16.6    80   13.3   2.0    SW   0.17   5.0    SW   16.7   16.8   16.8  1012.6  0.00  0.00   0.006   0.000   26.9    45   14.0   26.7   8.34  .0723    117    1    100.0    5 
21/05/18  18:45   17.0   17.0   16.7    80   13.5   1.0    SW   0.08   5.0    SW   17.0   17.2   17.2  1012.7  0.00  0.00   0.005   0.000   26.9    45   14.0   26.7   8.34  .0723    117    1    100.0    5 
21/05/18  18:50   17.2   17.2   17.0    80   13.7   1.0    SW   0.08   5.0    SW   17.2   17.3   17.3  1012.7  0.00  0.00   0.004   0.000   26.9    45   14.0   26.7   8.34  .0723    117    1    100.0    5 
21/05/18  18:55   17.4   17.4   17.2    81   14.1   1.0    SW   0.08   4.0    SW   17.4   17.6   17.6  1012.7  0.00  0.00   0.003   0.000   26.9    45   14.0   26.7   8.34  .0723    116    1    100.0    5 
21/05/18  19:00   17.7   17.7   17.4    81   14.4   2.0    SW   0.17   5.0    SW   17.7   17.9   17.9  1012.7  0.00  0.00   0.002   0.000   26.9    45   14.0   26.7   8.34  .0723    117    1    100.0    5 
21/05/18  19:05   17.9   17.9   17.7    80   14.4   2.0   WSW   0.17   5.0    SW   17.9   18.3   18.3  1012.7  0.00  0.00   0.001   0.000   27.0    45   14.1   26.8   8.34  .0723    117    1    100.0    5 
21/05/18  19:10   18.0   18.0   17.9    79   14.3   2.0   WSW   0.17   5.0   WSW   18.0   18.3   18.3  1012.7  0.00  0.00   0.001   0.000   27.0    45   14.1   26.8   8.34  .0723    117    1    100.0    5 
21/05/18  19:15   17.9   18.0   17.9    78   14.1   3.0   WSW   0.25   5.0   WSW   17.9   18.2   18.2  1012.6  0.00  0.00   0.001   0.000   27.0    44   13.7   26.7   8.15  .0723    117    1    100.0    5 
21/05/18  19:20   17.8   17.9   17.8    78   13.9   4.0   WSW   0.33   6.0   WSW   17.8   18.1   18.1  1012.6  0.00  0.00   0.002   0.000   27.0    45   14.1   26.8   8.34  .0722    117    1    100.0    5 
21/05/18  19:25   17.7   17.8   17.7    78   13.8   3.0     W   0.25   7.0   WSW   17.7   17.8   17.8  1012.5  0.00  0.00   0.002   0.000   27.0    45   14.1   26.8   8.34  .0722    117    1    100.0    5 
21/05/18  19:30   17.6   17.7   17.6    78   13.7   2.0     W   0.17   5.0     W   17.6   17.8   17.8  1012.6  0.00  0.00   0.003   0.000   27.0    45   14.1   26.8   8.34  .0722    116    1    100.0    5 
21/05/18  19:35   17.6   17.6   17.6    79   13.9   1.0     W   0.08   4.0     W   17.6   17.7   17.7  1012.6  0.00  0.00   0.003   0.000   27.0    45   14.1   26.8   8.34  .0722    116    1    100.0    5 
21/05/18  19:40   17.6   17.6   17.6    79   13.9   1.0     W   0.08   4.0     W   17.6   17.8   17.8  1012.6  0.00  0.00   0.003   0.000   27.0    44   13.7   26.7   8.15  .0723    116    1    100.0    5 
21/05/18  19:45   17.6   17.6   17.6    79   13.9   1.0     W   0.08   6.0     W   17.6   17.7   17.7  1012.7  0.00  0.00   0.003   0.000   27.0    45   14.1   26.8   8.34  .0723    116    1    100.0    5 
21/05/18  19:50   17.6   17.6   17.6    79   13.9   0.0     W   0.00   1.0     W   17.6   17.7   17.7  1012.7  0.00  0.00   0.003   0.000   27.0    44   13.7   26.7   8.15  .0723    116    1    100.0    5 
21/05/18  19:55   17.6   17.6   17.6    80   14.1   1.0     W   0.08   3.0     W   17.6   17.8   17.8  1012.8  0.00  0.00   0.003   0.000   27.0    45   14.1   26.8   8.34  .0723    116    1    100.0    5 
21/05/18  20:00   17.6   17.6   17.6    80   14.1   0.0     W   0.00   2.0     W   17.6   17.8   17.8  1012.8  0.00  0.00   0.003   0.000   27.0    45   14.1   26.8   8.34  .0723    117    1    100.0    5 
21/05/18  20:05   17.5   17.6   17.5    80   14.0   0.0     W   0.00   1.0     W   17.5   17.7   17.7  1012.7  0.00  0.00   0.003   0.000   27.0    45   14.1   26.8   8.34  .0723    116    1    100.0    5 
21/05/18  20:10   17.4   17.5   17.4    80   14.0   0.0     W   0.00   3.0     W   17.4   17.7   17.7  1012.7  0.00  0.00   0.003   0.000   27.0    45   14.1   26.8   8.34  .0723    118    1    100.0    5 
21/05/18  20:15   17.4   17.4   17.4    80   13.9   0.0     W   0.00   2.0     W   17.4   17.6   17.6  1012.7  0.00  0.00   0.003   0.000   27.0    45   14.1   26.8   8.34  .0723    117    1    100.0    5 
21/05/18  20:20   17.3   17.4   17.3    80   13.8   0.0     W   0.00   2.0     W   17.3   17.5   17.5  1012.7  0.00  0.00   0.003   0.000   27.0    45   14.1   26.8   8.34  .0723    117    1    100.0    5 
21/05/18  20:25   17.3   17.3   17.3    80   13.8   2.0     W   0.17   4.0     W   17.3   17.4   17.4  1012.8  0.00  0.00   0.004   0.000   27.1    45   14.1   26.8   8.34  .0722    116    1    100.0    5 
21/05/18  20:30   17.2   17.3   17.2    80   13.7   2.0     W   0.17   5.0     W   17.2   17.3   17.3  1012.7  0.00  0.00   0.004   0.000   27.0    45   14.1   26.8   8.34  .0723    117    1    100.0    5 
21/05/18  20:35   17.1   17.2   17.1    80   13.6   4.0     W   0.33   6.0     W   17.1   17.3   17.3  1012.8  0.00  0.00   0.004   0.000   27.0    45   14.1   26.8   8.34  .0723    117    1    100.0    5 
21/05/18  20:40   17.0   17.1   17.0    80   13.5   4.0    NW   0.33   8.0    NW   17.0   17.2   17.2  1012.9  0.00  0.00   0.005   0.000   26.9    45   14.0   26.7   8.34  .0723    117    1    100.0    5 
21/05/18  20:45   16.9   17.0   16.9    80   13.5   2.0    NW   0.17   7.0    NW   16.9   17.1   17.1  1012.9  0.00  0.00   0.005   0.000   26.9    45   14.0   26.7   8.34  .0723    117    1    100.0    5 
21/05/18  20:50   16.9   16.9   16.9    80   13.4   3.0    NW   0.25   6.0    NW   16.9   17.0   17.0  1012.9  0.00  0.00   0.005   0.000   26.9    45   14.0   26.7   8.34  .0723    115    1    100.0    5 
21/05/18  20:55   16.8   16.9   16.8    80   13.3   3.0    NW   0.25   7.0    NW   16.8   16.9   16.9  1012.9  0.00  0.00   0.005   0.000   26.9    45   14.0   26.7   8.34  .0723    115    1    100.0    5 
21/05/18  21:00   16.7   16.8   16.7    80   13.3   5.0    NW   0.42   8.0   NNW   16.7   16.8   16.8  1012.9  0.00  0.00   0.006   0.000   26.9    45   14.0   26.7   8.34  .0723    114    1    100.0    5 
21/05/18  21:05   16.7   16.7   16.7    80   13.2   4.0   NNW   0.33   7.0   NNW   16.7   16.8   16.8  1012.9  0.00  0.00   0.006   0.000   26.9    45   14.0   26.7   8.34  .0723    116    1    100.0    5 
21/05/18  21:10   16.6   16.7   16.6    80   13.1   5.0   NNW   0.42  10.0   NNW   16.6   16.7   16.7  1012.9  0.00  0.00   0.006   0.000   26.8    45   13.9   26.6   8.34  .0723    118    1    100.0    5 
21/05/18  21:15   16.5   16.6   16.5    80   13.0   4.0     N   0.33   9.0   NNW   16.5   16.6   16.6  1012.9  0.00  0.00   0.006   0.000   26.8    45   13.9   26.6   8.34  .0723    117    1    100.0    5 
21/05/18  21:20   16.4   16.5   16.4    80   12.9   4.0     N   0.33   7.0     N   16.4   16.4   16.4  1013.0  0.00  0.00   0.007   0.000   26.8    45   13.9   26.6   8.35  .0723    116    1    100.0    5 
21/05/18  21:25   16.3   16.4   16.3    81   13.1   4.0     N   0.33   6.0     N   16.3   16.4   16.4  1013.0  0.00  0.00   0.007   0.000   26.7    45   13.8   26.5   8.35  .0724    116    1    100.0    5 
21/05/18  21:30   16.2   16.3   16.2    81   13.0   4.0     N   0.33   7.0     N   16.2   16.3   16.3  1013.0  0.00  0.00   0.007   0.000   26.7    45   13.7   26.4   8.35  .0724    116    1    100.0    5 
21/05/18  21:35   16.2   16.2   16.2    81   12.9   4.0     N   0.33   6.0     N   16.2   16.2   16.2  1013.0  0.00  0.00   0.008   0.000   26.6    45   13.7   26.4   8.35  .0724    117    1    100.0    5 
21/05/18  21:40   16.1   16.2   16.1    81   12.8   4.0     N   0.33   7.0     N   16.1   16.1   16.1  1013.1  0.00  0.00   0.008   0.000   26.6    45   13.6   26.3   8.35  .0724    116    1    100.0    5 
21/05/18  21:45   16.1   16.1   16.1    82   13.0   4.0     N   0.33   5.0     N   16.1   16.1   16.1  1013.1  0.00  0.00   0.008   0.000   26.6    45   13.6   26.3   8.35  .0724    117    1    100.0    5 
21/05/18  21:50   16.1   16.1   16.1    82   13.0   3.0     N   0.25   5.0     N   16.1   16.1   16.1  1013.0  0.00  0.00   0.008   0.000   26.5    45   13.6   26.3   8.36  .0724    117    1    100.0    5 
21/05/18  21:55   15.9   16.1   15.9    82   12.9   3.0     N   0.25   5.0     N   15.9   16.0   16.0  1013.0  0.00  0.00   0.008   0.000   26.5    45   13.6   26.3   8.36  .0724    116    1    100.0    5 
21/05/18  22:00   15.9   15.9   15.9    82   12.8   2.0     N   0.17   4.0     N   15.9   15.9   15.9  1013.0  0.00  0.00   0.008   0.000   26.4    45   13.5   26.2   8.36  .0724    117    1    100.0    5 
21/05/18  22:05   15.8   15.9   15.8    82   12.7   2.0     N   0.17   4.0     N   15.8   15.8   15.8  1013.0  0.00  0.00   0.009   0.000   26.4    45   13.5   26.2   8.36  .0724    117    1    100.0    5 
21/05/18  22:10   15.7   15.8   15.7    82   12.7   3.0     N   0.25   5.0     N   15.7   15.7   15.7  1013.0  0.00  0.00   0.009   0.000   26.4    45   13.5   26.2   8.36  .0725    115    1    100.0    5 
21/05/18  22:15   15.6   15.7   15.6    82   12.5   2.0     N   0.17   4.0     N   15.6   15.6   15.6  1013.0  0.00  0.00   0.009   0.000   26.4    45   13.5   26.2   8.36  .0725    118    1    100.0    5 
21/05/18  22:20   15.5   15.6   15.5    83   12.6   3.0     N   0.25   4.0     N   15.5   15.5   15.5  1013.0  0.00  0.00   0.010   0.000   26.4    45   13.5   26.2   8.36  .0725    115    1    100.0    5 
21/05/18  22:25   15.4   15.5   15.4    83   12.5   3.0     N   0.25   5.0     N   15.4   15.4   15.4  1013.0  0.00  0.00   0.010   0.000   26.3    45   13.4   26.2   8.36  .0725    117    1    100.0    5 
21/05/18  22:30   15.3   15.4   15.3    83   12.5   2.0     N   0.17   5.0     N   15.3   15.3   15.3  1013.1  0.00  0.00   0.010   0.000   26.3    45   13.4   26.2   8.36  .0725    115    1    100.0    5 
21/05/18  22:35   15.2   15.3   15.2    83   12.4   4.0     N   0.33   9.0   NNW   15.2   15.2   15.2  1013.1  0.00  0.00   0.011   0.000   26.3    45   13.4   26.2   8.36  .0725    117    1    100.0    5 
21/05/18  22:40   15.1   15.2   15.1    83   12.2   3.0   NNW   0.25   6.0   NNW   15.1   15.1   15.1  1013.2  0.00  0.00   0.011   0.000   26.3    45   13.4   26.2   8.36  .0725    116    1    100.0    5 
21/05/18  22:45   15.1   15.1   15.1    83   12.2   3.0   NNW   0.25   6.0   NNW   15.1   15.0   15.0  1013.1  0.00  0.00   0.011   0.000   26.3    45   13.4   26.2   8.36  .0725    114    1    100.0    5 
21/05/18  22:50   15.1   15.1   15.1    83   12.2   3.0   NNW   0.25   7.0   NNW   15.1   15.0   15.0  1013.1  0.00  0.00   0.011   0.000   26.3    45   13.4   26.1   8.36  .0725    117    1    100.0    5 
21/05/18  22:55   15.0   15.1   15.0    83   12.1   3.0   NNW   0.25   5.0   NNW   15.0   14.9   14.9  1013.1  0.00  0.00   0.012   0.000   26.3    45   13.4   26.1   8.36  .0725    116    1    100.0    5 
21/05/18  23:00   14.9   15.0   14.9    83   12.1   4.0   NNW   0.33   8.0   NNW   14.9   14.9   14.9  1013.0  0.00  0.00   0.012   0.000   26.3    46   13.7   26.2   8.46  .0725    116    1    100.0    5 
21/05/18  23:05   14.9   14.9   14.9    83   12.0   4.0   NNW   0.33   7.0   NNW   14.9   14.8   14.8  1013.1  0.00  0.00   0.012   0.000   26.3    46   13.7   26.2   8.46  .0725    117    1    100.0    5 
21/05/18  23:10   14.8   14.9   14.8    83   12.0   4.0   NNW   0.33   6.0   NNW   14.8   14.8   14.8  1013.0  0.00  0.00   0.012   0.000   26.3    46   13.7   26.2   8.46  .0725    116    1    100.0    5 
21/05/18  23:15   14.9   14.9   14.8    83   12.0   3.0   NNW   0.25   6.0   NNW   14.9   14.8   14.8  1013.0  0.00  0.00   0.012   0.000   26.2    45   13.3   26.1   8.37  .0725    116    1    100.0    5 
21/05/18  23:20   14.8   14.9   14.8    83   12.0   2.0   NNW   0.17   5.0   NNW   14.8   14.8   14.8  1013.0  0.00  0.00   0.012   0.000   26.2    46   13.7   26.1   8.47  .0725    118    1    100.0    5 
21/05/18  23:25   14.8   14.8   14.8    83   12.0   2.0   NNW   0.17   4.0   NNW   14.8   14.8   14.8  1013.0  0.00  0.00   0.012   0.000   26.2    45   13.3   26.1   8.37  .0725    116    1    100.0    5 
21/05/18  23:30   14.8   14.8   14.8    83   11.9   2.0   NNW   0.17   4.0   NNW   14.8   14.7   14.7  1012.9  0.00  0.00   0.012   0.000   26.2    45   13.3   26.1   8.37  .0725    117    1    100.0    5 
21/05/18  23:35   14.7   14.8   14.7    83   11.9   2.0   NNW   0.17   3.0   NNW   14.7   14.7   14.7  1012.9  0.00  0.00   0.013   0.000   26.2    45   13.3   26.0   8.37  .0725    116    1    100.0    5 
21/05/18  23:40   14.7   14.7   14.6    83   11.8   3.0   NNW   0.25   4.0   NNW   14.7   14.6   14.6  1012.9  0.00  0.00   0.013   0.000   26.1    45   13.2   25.9   8.37  .0725    117    1    100.0    5 
21/05/18  23:45   14.6   14.7   14.6    83   11.7   2.0   NNW   0.17   4.0   NNW   14.6   14.5   14.5  1012.9  0.00  0.00   0.013   0.000   26.1    45   13.2   25.9   8.37  .0725    117    1    100.0    5 
21/05/18  23:50   14.6   14.6   14.5    83   11.7   1.0   NNW   0.08   3.0   NNW   14.6   14.5   14.5  1012.9  0.00  0.00   0.013   0.000   26.1    45   13.2   25.9   8.37  .0725    117    1    100.0    5 
21/05/18  23:55   14.4   14.6   14.4    83   11.6   1.0   NNW   0.08   3.0   NNW   14.4   14.4   14.4  1012.9  0.00  0.00   0.014   0.000   26.1    45   13.2   25.9   8.37  .0725    117    1    100.0    5 
22/05/18  00:00   14.4   14.4   14.4    83   11.5   1.0   NNW   0.08   3.0   NNW   14.4   14.3   14.3  1012.9  0.00  0.00   0.014   0.000   26.1    45   13.2   25.9   8.37  .0726    117    1    100.0    5 
22/05/18   0:05   14.3   14.4   14.3    83   11.4   1.0   NNW   0.08   3.0   NNW   14.3   14.2   14.2  1012.9  0.00  0.00   0.014   0.000   26.1    45   13.2   25.9   8.37  .0726    116    1    100.0    5 
22/05/18   0:10   14.2   14.3   14.2    84   11.6   0.0   NNW   0.00   2.0   NNW   14.2   14.2   14.2  1012.9  0.00  0.00   0.014   0.000   26.1    45   13.2   25.9   8.37  .0726    116    1    100.0    5 
22/05/18   0:15   14.1   14.2   14.1    83   11.3   0.0   NNW   0.00   2.0   NNW   14.1   14.0   14.0  1012.8  0.00  0.00   0.015   0.000   26.1    45   13.2   25.9   8.37  .0726    116    1    100.0    5 
22/05/18   0:20   14.0   14.1   14.0    83   11.2   0.0   ---   0.00   0.0   ---   14.0   13.9   13.9  1012.8  0.00  0.00   0.015   0.000   26.1    45   13.2   25.9   8.37  .0726    113    1     99.1    5 
22/05/18   0:25   13.9   14.0   13.9    84   11.2   0.0   ---   0.00   0.0   ---   13.9   13.8   13.8  1012.8  0.00  0.00   0.015   0.000   26.1    45   13.2   25.9   8.37  .0726    116    1    100.0    5 
22/05/18   0:30   13.8   13.9   13.8    84   11.1   0.0   ---   0.00   0.0   ---   13.8   13.7   13.7  1012.8  0.00  0.00   0.016   0.000   26.0    45   13.1   25.8   8.37  .0726    117    1    100.0    5 
22/05/18   0:35   13.7   13.8   13.7    84   11.1   1.0   NNW   0.08   5.0   NNW   13.7   13.7   13.7  1012.8  0.00  0.00   0.016   0.000   26.0    45   13.1   25.8   8.37  .0726    117    1    100.0    5 
22/05/18   0:40   13.8   13.8   13.7    84   11.1   3.0   NNW   0.25   5.0   NNW   13.8   13.7   13.7  1012.8  0.00  0.00   0.016   0.000   26.0    45   13.1   25.8   8.37  .0726    117    1    100.0    5 
22/05/18   0:45   13.8   13.8   13.8    84   11.2   3.0   NNW   0.25   5.0   NNW   13.8   13.8   13.8  1012.8  0.00  0.00   0.016   0.000   26.0    45   13.1   25.8   8.37  .0726    118    1    100.0    5 
22/05/18   0:50   13.8   13.8   13.8    84   11.2   3.0   NNW   0.25   5.0   NNW   13.8   13.8   13.8  1012.8  0.00  0.00   0.016   0.000   26.0    45   13.1   25.8   8.37  .0726    117    1    100.0    5 
22/05/18   0:55   13.9   13.9   13.8    84   11.2   3.0   NNW   0.25   5.0   NNW   13.9   13.8   13.8  1012.8  0.00  0.00   0.015   0.000   26.0    45   13.1   25.8   8.37  .0726    117    1    100.0    5 
22/05/18   1:00   13.9   13.9   13.9    84   11.2   3.0   NNW   0.25   5.0   NNW   13.9   13.8   13.8  1012.7  0.00  0.00   0.015   0.000   26.0    45   13.1   25.8   8.37  .0726    117    1    100.0    5 
22/05/18   1:05   13.9   13.9   13.9    84   11.3   3.0   NNW   0.25   5.0   NNW   13.9   13.9   13.9  1012.7  0.00  0.00   0.015   0.000   25.9    45   13.1   25.8   8.38  .0726    116    1    100.0    5 
22/05/18   1:10   13.8   13.9   13.8    84   11.2   2.0   NNW   0.17   4.0   NNW   13.8   13.8   13.8  1012.5  0.00  0.00   0.016   0.000   25.9    45   13.1   25.8   8.38  .0726    114    1    100.0    5 
22/05/18   1:15   13.8   13.9   13.8    84   11.2   3.0   NNW   0.25   4.0   NNW   13.8   13.8   13.8  1012.6  0.00  0.00   0.016   0.000   25.9    45   13.1   25.8   8.38  .0726    116    1    100.0    5 
22/05/18   1:20   13.8   13.8   13.8    84   11.1   2.0   NNW   0.17   5.0   NNW   13.8   13.7   13.7  1012.5  0.00  0.00   0.016   0.000   25.9    45   13.1   25.8   8.38  .0726    117    1    100.0    5 
22/05/18   1:25   13.8   13.8   13.8    84   11.1   1.0   NNW   0.08   4.0   NNW   13.8   13.7   13.7  1012.5  0.00  0.00   0.016   0.000   25.9    46   13.4   25.8   8.48  .0726    116    1    100.0    5 
22/05/18   1:30   13.8   13.8   13.8    84   11.2   2.0   NNW   0.17   4.0   NNW   13.8   13.8   13.8  1012.5  0.00  0.00   0.016   0.000   25.9    45   13.0   25.7   8.38  .0726    117    1    100.0    5 
22/05/18   1:35   13.8   13.8   13.8    84   11.2   3.0   NNW   0.25   5.0   NNW   13.8   13.8   13.8  1012.5  0.00  0.00   0.016   0.000   25.9    46   13.4   25.8   8.48  .0726    116    1    100.0    5 
22/05/18   1:40   13.9   13.9   13.8    83   11.0   3.0   NNW   0.25   5.0   NNW   13.9   13.8   13.8  1012.5  0.00  0.00   0.015   0.000   25.9    46   13.4   25.8   8.48  .0726    117    1    100.0    5 
22/05/18   1:45   13.9   13.9   13.9    83   11.1   2.0   NNW   0.17   4.0   NNW   13.9   13.8   13.8  1012.6  0.00  0.00   0.015   0.000   25.9    46   13.4   25.8   8.48  .0726    117    1    100.0    5 
22/05/18   1:50   13.9   13.9   13.9    83   11.1   2.0   NNW   0.17   4.0   NNW   13.9   13.8   13.8  1012.6  0.00  0.00   0.015   0.000   25.9    46   13.4   25.8   8.48  .0726    118    1    100.0    5 
22/05/18   1:55   13.9   13.9   13.9    83   11.0   2.0   NNW   0.17   4.0   NNW   13.9   13.8   13.8  1012.6  0.00  0.00   0.015   0.000   25.9    45   13.0   25.7   8.38  .0726    117    1    100.0    5 
22/05/18   2:00   13.8   13.9   13.8    83   11.0   2.0   NNW   0.17   3.0   NNW   13.8   13.7   13.7  1012.5  0.00  0.00   0.016   0.000   25.8    46   13.3   25.7   8.48  .0726    116    1    100.0    5 
22/05/18   2:05   13.8   13.8   13.8    83   10.9   1.0   NNW   0.08   2.0   NNW   13.8   13.7   13.7  1012.5  0.00  0.00   0.016   0.000   25.8    45   13.0   25.6   8.38  .0726    117    1    100.0    5 
22/05/18   2:10   13.7   13.8   13.7    83   10.9   1.0   NNW   0.08   2.0   NNW   13.7   13.6   13.6  1012.5  0.00  0.00   0.016   0.000   25.8    46   13.3   25.7   8.48  .0726    116    1    100.0    5 
22/05/18   2:15   13.7   13.7   13.7    83   10.8   2.0   NNW   0.17   4.0   NNW   13.7   13.6   13.6  1012.5  0.00  0.00   0.016   0.000   25.8    45   13.0   25.6   8.38  .0726    116    1    100.0    5 
22/05/18   2:20   13.6   13.7   13.6    83   10.8   2.0   NNW   0.17   5.0   NNW   13.6   13.5   13.5  1012.4  0.00  0.00   0.016   0.000   25.8    45   12.9   25.6   8.38  .0726    115    1    100.0    5 
22/05/18   2:25   13.6   13.6   13.6    83   10.7   2.0   NNW   0.17   5.0   NNW   13.6   13.4   13.4  1012.4  0.00  0.00   0.017   0.000   25.8    45   12.9   25.6   8.38  .0726    116    1    100.0    5 
22/05/18   2:30   13.6   13.6   13.6    83   10.7   2.0   NNW   0.17   6.0   NNW   13.6   13.4   13.4  1012.4  0.00  0.00   0.017   0.000   25.8    45   12.9   25.6   8.38  .0726    116    1    100.0    5 
22/05/18   2:35   13.6   13.6   13.6    83   10.8   2.0   NNW   0.17   5.0   NNW   13.6   13.5   13.5  1012.5  0.00  0.00   0.016   0.000   25.7    46   13.2   25.6   8.48  .0726    117    1    100.0    5 
22/05/18   2:40   13.7   13.7   13.6    83   10.9   3.0   NNW   0.25   7.0   NNW   13.7   13.6   13.6  1012.4  0.00  0.00   0.016   0.000   25.7    45   12.9   25.5   8.38  .0726    115    1    100.0    5 
22/05/18   2:45   13.8   13.8   13.7    83   11.0   2.0   NNW   0.17   6.0   NNW   13.8   13.7   13.7  1012.3  0.00  0.00   0.016   0.000   25.7    45   12.8   25.4   8.39  .0726    117    1    100.0    5 
22/05/18   2:50   13.8   13.8   13.8    83   11.0   2.0   NNW   0.17   4.0   NNW   13.8   13.7   13.7  1012.4  0.00  0.00   0.016   0.000   25.7    45   12.8   25.4   8.39  .0726    116    1    100.0    5 
22/05/18   2:55   13.9   13.9   13.8    83   11.0   5.0     N   0.42   9.0     N   13.6   13.8   13.4  1012.4  0.00  0.00   0.015   0.000   25.7    45   12.8   25.4   8.39  .0726    118    1    100.0    5 
22/05/18   3:00   13.9   13.9   13.9    83   11.0   5.0     N   0.42   9.0   NNW   13.6   13.8   13.4  1012.4  0.00  0.00   0.015   0.000   25.6    45   12.8   25.4   8.39  .0727    116    1    100.0    5 
22/05/18   3:05   13.8   13.9   13.8    83   11.0   5.0   NNW   0.42   7.0     N   13.5   13.7   13.4  1012.4  0.00  0.00   0.016   0.000   25.6    45   12.8   25.4   8.39  .0727    117    1    100.0    5 
22/05/18   3:10   13.8   13.8   13.8    83   11.0   5.0   NNW   0.42   8.0   NNW   13.5   13.7   13.4  1012.3  0.00  0.00   0.016   0.000   25.6    45   12.8   25.4   8.39  .0726    116    1    100.0    5 
22/05/18   3:15   13.8   13.8   13.8    83   10.9   3.0   NNW   0.25   5.0   NNW   13.8   13.7   13.7  1012.3  0.00  0.00   0.016   0.000   25.6    46   13.1   25.4   8.49  .0726    116    1    100.0    5 
22/05/18   3:20   13.8   13.8   13.7    83   10.9   3.0   NNW   0.25   4.0   NNW   13.8   13.7   13.7  1012.3  0.00  0.00   0.016   0.000   25.6    46   13.1   25.4   8.49  .0726    116    1    100.0    5 
22/05/18   3:25   13.7   13.8   13.7    83   10.9   3.0   NNW   0.25   6.0   NNW   13.7   13.6   13.6  1012.2  0.00  0.00   0.016   0.000   25.5    45   12.7   25.3   8.39  .0727    115    1    100.0    5 
22/05/18   3:30   13.7   13.7   13.7    83   10.8   6.0   NNW   0.50  10.0   NNW   13.1   13.6   12.9  1012.2  0.00  0.00   0.016   0.000   25.5    45   12.7   25.3   8.39  .0727    116    1    100.0    5 
22/05/18   3:35   13.7   13.7   13.7    84   11.0   7.0   NNW   0.58  14.0   NNE   12.8   13.6   12.8  1012.2  0.00  0.00   0.016   0.000   25.5    45   12.7   25.3   8.39  .0727    117    1    100.0    5 
22/05/18   3:40   13.8   13.8   13.7    84   11.1   8.0   NNW   0.67  15.0   NNW   12.6   13.7   12.6  1012.2  0.00  0.00   0.016   0.000   25.4    45   12.6   25.2   8.39  .0727    116    1    100.0    5 
22/05/18   3:45   13.9   13.9   13.8    84   11.2   7.0     N   0.58  15.0   NNW   13.1   13.8   13.1  1012.3  0.00  0.00   0.015   0.000   25.4    45   12.6   25.2   8.40  .0727    117    1    100.0    5 
22/05/18   3:50   13.9   13.9   13.9    84   11.3   7.0   NNW   0.58  10.0     N   13.2   13.9   13.1  1012.3  0.00  0.00   0.015   0.000   25.4    45   12.6   25.2   8.40  .0727    117    1    100.0    5 
22/05/18   3:55   14.0   14.0   13.9    84   11.3   4.0     N   0.33   6.0     N   14.0   13.9   13.9  1012.3  0.00  0.00   0.015   0.000   25.4    45   12.6   25.2   8.40  .0727    118    1    100.0    5 
22/05/18   4:00   14.0   14.0   14.0    83   11.2   3.0     N   0.25   5.0     N   14.0   13.9   13.9  1012.3  0.00  0.00   0.015   0.000   25.4    45   12.6   25.2   8.40  .0727    115    1    100.0    5 
22/05/18   4:05   13.9   14.0   13.9    84   11.3   4.0   NNW   0.33   7.0   NNW   13.9   13.9   13.9  1012.3  0.00  0.00   0.015   0.000   25.4    45   12.6   25.2   8.40  .0727    117    1    100.0    5 
22/05/18   4:10   13.9   13.9   13.9    84   11.3   4.0    NW   0.33   6.0    NW   13.9   13.9   13.9  1012.4  0.00  0.00   0.015   0.000   25.4    45   12.6   25.2   8.40  .0727    117    1    100.0    5 
22/05/18   4:15   13.9   13.9   13.9    84   11.2   6.0    NW   0.50  10.0    NW   13.3   13.8   13.3  1012.4  0.00  0.00   0.015   0.000   25.3    46   12.9   25.1   8.50  .0727    116    1    100.0    5 
22/05/18   4:20   13.8   13.9   13.8    84   11.2   6.0    NW   0.50  10.0    NW   13.3   13.8   13.2  1012.3  0.00  0.00   0.016   0.000   25.3    46   12.9   25.1   8.50  .0727    117    1    100.0    5 
22/05/18   4:25   13.8   13.8   13.8    84   11.1   6.0    NW   0.50   9.0    NW   13.2   13.7   13.2  1012.4  0.00  0.00   0.016   0.000   25.3    46   12.9   25.1   8.50  .0727    117    1    100.0    5 
22/05/18   4:30   13.7   13.8   13.7    84   11.1   7.0    NW   0.58  12.0    NW   12.9   13.7   12.8  1012.4  0.00  0.00   0.016   0.000   25.3    46   12.8   25.1   8.50  .0727    117    1    100.0    5 
22/05/18   4:35   13.7   13.7   13.7    84   11.0   9.0   NNW   0.75  13.0    NW   12.1   13.6   12.0  1012.4  0.00  0.00   0.016   0.000   25.2    46   12.8   25.0   8.50  .0728    117    1    100.0    5 
22/05/18   4:40   13.6   13.6   13.6    84   10.9   7.0   NNW   0.58  11.0   NNW   12.7   13.5   12.7  1012.4  0.00  0.00   0.017   0.000   25.2    46   12.7   24.9   8.50  .0728    117    1    100.0    5 
22/05/18   4:45   13.5   13.6   13.5    84   10.8   6.0    NW   0.50  10.0    NW   12.9   13.4   12.8  1012.5  0.00  0.00   0.017   0.000   25.2    46   12.7   24.9   8.50  .0728    116    1    100.0    5 
22/05/18   4:50   13.4   13.5   13.4    84   10.8   6.0    NW   0.50  10.0   NNW   12.8   13.4   12.7  1012.4  0.00  0.00   0.017   0.000   25.2    46   12.7   24.9   8.50  .0728    117    1    100.0    5 
22/05/18   4:55   13.4   13.4   13.4    84   10.7   6.0    NW   0.50  10.0    NW   12.7   13.3   12.7  1012.4  0.00  0.00   0.017   0.000   25.1    46   12.7   24.9   8.51  .0728    117    1    100.0    5 
22/05/18   5:00   13.3   13.4   13.3    84   10.6   6.0   NNW   0.50  11.0   NNW   12.6   13.2   12.6  1012.5  0.00  0.00   0.018   0.000   25.1    46   12.7   24.9   8.51  .0728    117    1    100.0    5 
22/05/18   5:05   13.2   13.3   13.2    84   10.6   5.0   NNW   0.42   9.0     N   12.8   13.2   12.8  1012.5  0.00  0.00   0.018   0.000   25.1    46   12.6   24.8   8.51  .0728    116    1    100.0    5 
22/05/18   5:10   13.2   13.2   13.2    85   10.7   6.0     N   0.50  13.0   NNW   12.4   13.1   12.4  1012.5  0.00  0.00   0.018   0.000   25.1    45   12.3   24.8   8.41  .0728    117    1    100.0    5 
22/05/18   5:15   13.1   13.2   13.1    85   10.6   6.0     N   0.50  14.0     N   12.4   13.1   12.3  1012.4  0.00  0.00   0.018   0.000   25.0    46   12.6   24.8   8.51  .0728    117    1    100.0    5 
22/05/18   5:20   13.1   13.1   13.1    85   10.6   7.0   NNW   0.58  12.0     N   12.1   13.0   12.1  1012.5  0.00  0.00   0.018   0.000   25.0    45   12.2   24.7   8.41  .0729    116    1    100.0    5 
22/05/18   5:25   13.0   13.1   13.0    85   10.5   8.0   NNW   0.67  13.0     N   11.7   12.9   11.6  1012.5  0.00  0.00   0.019   0.000   24.9    45   12.2   24.7   8.41  .0729    115    1    100.0    5 
22/05/18   5:30   13.0   13.0   13.0    84   10.4   6.0     N   0.50  12.0     N   12.3   12.9   12.2  1012.6  0.00  0.00   0.019   0.000   24.9    45   12.1   24.6   8.41  .0729    117    1    100.0    5 
22/05/18   5:35   12.9   13.0   12.9    84   10.3   6.0   NNW   0.50  10.0     N   12.2   12.9   12.2  1012.6  0.00  0.00   0.019   0.000   24.9    46   12.5   24.7   8.51  .0729    117    1    100.0    5 
22/05/18   5:40   12.9   12.9   12.9    84   10.2   6.0     N   0.50  12.0   NNW   12.1   12.8   12.1  1012.5  0.00  0.00   0.019   0.000   24.9    45   12.1   24.6   8.41  .0729    116    1    100.0    5 
22/05/18   5:45   12.8   12.9   12.8    85   10.4   7.0   NNW   0.58  14.0     N   11.8   12.8   11.8  1012.6  0.00  0.00   0.019   0.000   24.8    46   12.4   24.6   8.52  .0729    117    1    100.0    5 
22/05/18   5:50   12.8   12.8   12.8    85   10.3   8.0   NNW   0.67  15.0     N   11.4   12.7   11.3  1012.7  0.00  0.00   0.019   0.000   24.8    45   12.1   24.6   8.42  .0729    115    1    100.0    5 
22/05/18   5:55   12.8   12.8   12.7    85   10.3   9.0     N   0.75  15.0     N   11.0   12.7   10.9  1012.6  0.00  0.00   0.019   0.000   24.8    45   12.0   24.5   8.42  .0729    117    1    100.0    5 
22/05/18   6:00   12.7   12.8   12.7    85   10.3   9.0     N   0.75  17.0     N   10.9   12.7   10.9  1012.7  0.00  0.00   0.019   0.000   24.7    45   12.0   24.5   8.42  .0730    117    1    100.0    5 
22/05/18   6:05   12.7   12.7   12.7    85   10.2   9.0     N   0.75  17.0     N   10.9   12.6   10.8  1012.8  0.00  0.00   0.020   0.000   24.7    45   11.9   24.4   8.42  .0730    118    1    100.0    5 
22/05/18   6:10   12.7   12.7   12.7    85   10.2   8.0     N   0.67  14.0   NNW   11.3   12.6   11.2  1012.8  0.00  0.00   0.020   0.000   24.7    45   11.9   24.4   8.42  .0730    117    1    100.0    5 
22/05/18   6:15   12.7   12.7   12.7    85   10.2   8.0     N   0.67  16.0     N   11.3   12.6   11.2  1012.8  0.00  0.00   0.020   0.000   24.6    45   11.9   24.4   8.42  .0730    117    1    100.0    5 
22/05/18   6:20   12.6   12.7   12.6    85   10.2   7.0   NNW   0.58  14.0   NNW   11.6   12.6   11.5  1012.9  0.00  0.00   0.020   0.000   24.6    45   11.8   24.3   8.43  .0730    117    1    100.0    5 
22/05/18   6:25   12.7   12.7   12.6    85   10.2   9.0     N   0.75  14.0     N   10.9   12.6   10.8  1013.0  0.00  0.00   0.020   0.000   24.6    45   11.8   24.3   8.43  .0730    117    1    100.0    5 
22/05/18   6:30   12.7   12.7   12.7    85   10.2   7.0     N   0.58  14.0   NNW   11.7   12.6   11.6  1012.9  0.00  0.00   0.020   0.000   24.6    45   11.8   24.3   8.43  .0730    117    1    100.0    5 
22/05/18   6:35   12.7   12.7   12.7    85   10.2   9.0     N   0.75  20.0     N   10.9   12.6   10.8  1012.9  0.00  0.00   0.020   0.000   24.5    45   11.8   24.3   8.43  .0730    117    1    100.0    5 
22/05/18   6:40   12.7   12.7   12.7    85   10.2  10.0     N   0.83  20.0   NNW   10.5   12.6   10.4  1012.9  0.00  0.00   0.020   0.000   24.6    45   11.8   24.3   8.43  .0730    117    1    100.0    5 
22/05/18   6:45   12.7   12.7   12.7    85   10.3  10.0     N   0.83  18.0     N   10.6   12.7   10.5  1013.0  0.00  0.00   0.019   0.000   24.6    45   11.8   24.3   8.43  .0730    117    1    100.0    5 
22/05/18   6:50   12.7   12.7   12.7    85   10.3  11.0     N   0.92  17.0   NNW   10.3   12.7   10.2  1012.9  0.00  0.00   0.019   0.000   24.5    45   11.8   24.3   8.43  .0730    116    1    100.0    5 
22/05/18   6:55   12.8   12.8   12.7    85   10.3  12.0     N   1.00  20.0     N   10.0   12.7    9.9  1012.9  0.00  0.00   0.019   0.000   24.5    45   11.8   24.3   8.43  .0730    117    1    100.0    5 
22/05/18   7:00   12.8   12.8   12.8    84   10.2  10.0     N   0.83  17.0     N   10.7   12.8   10.6  1012.9  0.00  0.00   0.019   0.000   24.4    45   11.7   24.2   8.43  .0731    117    1    100.0    5 
22/05/18   7:05   12.9   12.9   12.8    84   10.2  11.0     N   0.92  16.0     N   10.4   12.8   10.4  1013.1  0.00  0.00   0.019   0.000   24.4    45   11.7   24.2   8.43  .0731    116    1    100.0    5 
22/05/18   7:10   12.9   12.9   12.9    84   10.3  11.0     N   0.92  19.0     N   10.5   12.9   10.4  1013.1  0.00  0.00   0.019   0.000   24.4    45   11.7   24.2   8.43  .0731    118    1    100.0    5 
22/05/18   7:15   12.9   13.0   12.9    84   10.3  11.0     N   0.92  18.0   NNE   10.5   12.9   10.4  1013.1  0.00  0.00   0.019   0.000   24.4    45   11.7   24.2   8.43  .0731    116    1    100.0    5 
22/05/18   7:20   13.0   13.0   12.9    84   10.4  11.0     N   0.92  20.0     N   10.6   12.9   10.5  1013.1  0.00  0.00   0.019   0.000   24.4    45   11.7   24.2   8.43  .0731    117    1    100.0    5 
22/05/18   7:25   13.1   13.1   13.0    84   10.4  12.0     N   1.00  19.0     N   10.3   13.0   10.3  1013.1  0.00  0.00   0.018   0.000   24.4    45   11.7   24.2   8.43  .0731    116    1    100.0    5 
22/05/18   7:30   13.1   13.1   13.1    84   10.4  11.0     N   0.92  19.0     N   10.7   13.0   10.6  1013.3  0.00  0.00   0.018   0.000   24.3    45   11.6   24.1   8.43  .0731    116    1    100.0    5 
22/05/18   7:35   13.2   13.2   13.1    84   10.5  11.0     N   0.92  17.0     N   10.8   13.1   10.7  1013.3  0.00  0.00   0.018   0.000   24.3    45   11.6   24.1   8.44  .0731    116    1    100.0    5 
22/05/18   7:40   13.2   13.2   13.2    84   10.6  11.0     N   0.92  19.0   NNW   10.8   13.2   10.8  1013.4  0.00  0.00   0.018   0.000   24.3    45   11.6   24.1   8.44  .0731    116    1    100.0    5 
22/05/18   7:45   13.3   13.3   13.2    83   10.5  10.0     N   0.83  19.0     N   11.2   13.2   11.1  1013.5  0.00  0.00   0.018   0.000   24.3    46   11.9   24.1   8.54  .0731    115    1    100.0    5 
22/05/18   7:50   13.3   13.3   13.3    83   10.5  11.0     N   0.92  16.0   NNW   10.9   13.2   10.8  1013.5  0.00  0.00   0.017   0.000   24.3    47   12.2   24.2   8.74  .0731    117    1    100.0    5 
22/05/18   7:55   13.4   13.4   13.3    83   10.6   9.0     N   0.75  18.0     N   11.7   13.3   11.6  1013.5  0.00  0.00   0.017   0.000   24.3    47   12.2   24.2   8.74  .0731    117    1    100.0    5 
22/05/18   8:00   13.4   13.4   13.4    83   10.6   9.0     N   0.75  15.0   NNE   11.8   13.3   11.7  1013.5  0.00  0.00   0.017   0.000   24.3    47   12.2   24.2   8.74  .0731    116    1    100.0    5 
22/05/18   8:05   13.6   13.6   13.4    83   10.7  10.0     N   0.83  17.0   NNW   11.6   13.4   11.4  1013.4  0.00  0.00   0.017   0.000   24.3    46   11.9   24.1   8.54  .0731    114    1    100.0    5 
22/05/18   8:10   13.6   13.6   13.6    83   10.8  11.0     N   0.92  18.0     N   11.3   13.5   11.2  1013.5  0.00  0.00   0.016   0.000   24.3    46   11.9   24.1   8.54  .0731    118    1    100.0    5 
22/05/18   8:15   13.7   13.7   13.7    82   10.6  12.0     N   1.00  19.0     N   11.1   13.6   10.9  1013.6  0.00  0.00   0.016   0.000   24.3    46   11.9   24.1   8.54  .0731    117    1    100.0    5 
22/05/18   8:20   13.8   13.8   13.7    82   10.8  11.0     N   0.92  18.0   NNW   11.5   13.7   11.4  1013.6  0.00  0.00   0.016   0.000   24.3    46   11.9   24.1   8.54  .0731    117    1    100.0    5 
22/05/18   8:25   13.9   13.9   13.8    82   10.9   9.0     N   0.75  15.0     N   12.3   13.8   12.2  1013.6  0.00  0.00   0.015   0.000   24.2    46   11.9   24.1   8.54  .0732    117    1    100.0    5 
22/05/18   8:30   13.9   13.9   13.8    82   10.9  10.0     N   0.83  17.0     N   12.0   13.8   11.9  1013.6  0.00  0.00   0.015   0.000   24.2    46   11.9   24.1   8.54  .0731    115    1    100.0    5 
22/05/18   8:35   14.1   14.1   13.9    81   10.8  11.0     N   0.92  19.0   NNW   11.8   13.9   11.7  1013.6  0.00  0.00   0.015   0.000   24.2    46   11.9   24.1   8.54  .0732    114    1    100.0    5 
22/05/18   8:40   14.2   14.2   14.1    81   11.0  10.0     N   0.83  19.0     N   12.3   14.1   12.2  1013.6  0.00  0.00   0.014   0.000   24.2    46   11.9   24.1   8.54  .0731    116    1    100.0    5 
22/05/18   8:45   14.3   14.3   14.2    80   10.9  10.0     N   0.83  17.0   NNE   12.4   14.2   12.3  1013.7  0.00  0.00   0.014   0.000   24.2    46   11.9   24.1   8.54  .0732    117    1    100.0    5 
22/05/18   8:50   14.4   14.4   14.3    79   10.8   7.0     N   0.58  15.0     N   13.8   14.3   13.6  1013.7  0.00  0.00   0.014   0.000   24.2    46   11.8   24.0   8.54  .0732    116    1    100.0    5 
22/05/18   8:55   14.6   14.6   14.5    78   10.8   8.0     N   0.67  14.0     N   13.6   14.4   13.4  1013.7  0.00  0.00   0.013   0.000   24.2    46   11.8   24.0   8.54  .0732    116    1    100.0    5 
22/05/18   9:00   14.7   14.7   14.6    78   10.9   9.0     N   0.75  18.0     N   13.3   14.6   13.1  1013.6  0.00  0.00   0.013   0.000   24.2    46   11.8   24.0   8.54  .0732    117    1    100.0    5 
22/05/18   9:05   14.8   14.8   14.7    77   10.8  10.0     N   0.83  16.0     N   13.0   14.6   12.8  1013.7  0.00  0.00   0.012   0.000   24.1    45   11.4   23.9   8.44  .0732    117    1    100.0    5 
22/05/18   9:10   14.9   14.9   14.8    77   10.9  10.0     N   0.83  19.0     N   13.2   14.7   12.9  1013.7  0.00  0.00   0.012   0.000   24.1    46   11.7   23.9   8.54  .0732    117    1    100.0    5 
22/05/18   9:15   15.1   15.1   14.9    76   10.9  10.0     N   0.83  16.0   NNE   13.3   14.9   13.1  1013.7  0.00  0.00   0.011   0.000   24.1    46   11.7   23.9   8.54  .0732    118    1    100.0    5 
22/05/18   9:20   15.2   15.2   15.1    76   11.0  12.0     N   1.00  20.0     N   12.8   15.0   12.6  1013.7  0.00  0.00   0.011   0.000   24.1    45   11.4   23.9   8.44  .0732    117    1    100.0    5 
22/05/18   9:25   15.3   15.3   15.2    75   10.9  11.0     N   0.92  18.0     N   13.3   15.1   13.1  1013.6  0.00  0.00   0.010   0.000   24.1    45   11.4   23.9   8.44  .0732    117    1    100.0    5 
22/05/18   9:30   15.5   15.5   15.3    75   11.1  11.0     N   0.92  19.0   NNE   13.4   15.3   13.2  1013.6  0.00  0.00   0.010   0.000   24.0    46   11.7   23.9   8.55  .0732    117    1    100.0    5 
22/05/18   9:35   15.7   15.7   15.5    75   11.2  11.0     N   0.92  17.0     N   13.6   15.4   13.4  1013.6  0.00  0.00   0.009   0.000   24.0    46   11.7   23.9   8.55  .0732    117    1    100.0    5 
22/05/18   9:40   15.9   15.9   15.7    75   11.5  10.0     N   0.83  21.0     N   14.3   15.7   14.1  1013.6  0.00  0.00   0.008   0.000   24.0    46   11.7   23.9   8.55  .0732    116    1    100.0    5 
22/05/18   9:45   16.1   16.1   15.9    74   11.4  12.0     N   1.00  21.0     N   13.8   15.8   13.6  1013.6  0.00  0.00   0.008   0.000   24.0    46   11.7   23.9   8.55  .0732    117    1    100.0    5 
22/05/18   9:50   16.2   16.2   16.1    74   11.5   9.0     N   0.75  19.0   NNE   15.0   15.9   14.8  1013.5  0.00  0.00   0.008   0.000   24.0    46   11.7   23.9   8.55  .0732    117    1    100.0    5 
22/05/18   9:55   16.3   16.3   16.2    74   11.7  11.0     N   0.92  18.0     N   14.4   16.2   14.2  1013.5  0.00  0.00   0.007   0.000   24.0    46   11.7   23.9   8.55  .0732    116    1    100.0    5 
22/05/18  10:00   16.7   16.7   16.3    74   12.1   9.0     N   0.75  18.0   NNE   15.6   16.6   15.5  1013.6  0.00  0.00   0.006   0.000   24.1    46   11.7   23.9   8.54  .0732    116    1    100.0    5 
22/05/18  10:05   17.3   17.3   16.8    73   12.4  13.0     N   1.08  21.0     N   14.9   17.2   14.8  1013.5  0.00  0.00   0.004   0.000   24.1    46   11.8   23.9   8.54  .0732    116    1    100.0    5 
22/05/18  10:10   17.8   17.8   17.3    72   12.7  10.0     N   0.83  18.0   NNE   16.5   17.8   16.4  1013.6  0.00  0.00   0.002   0.000   24.2    46   11.8   24.0   8.54  .0732    115    1    100.0    5 
22/05/18  10:15   18.3   18.3   17.9    71   13.0   8.0     N   0.67  15.0     N   18.0   18.4   18.1  1013.7  0.00  0.00   0.000   0.000   24.2    46   11.9   24.1   8.54  .0732    116    1    100.0    5 
22/05/18  10:20   18.7   18.7   18.3    69   12.9  10.0   NNE   0.83  18.0     N   17.6   18.8   17.6  1013.8  0.00  0.00   0.000   0.001   24.3    46   11.9   24.1   8.54  .0731    116    1    100.0    5 
22/05/18  10:25   18.8   18.8   18.7    68   12.8   9.0     N   0.75  18.0     N   18.1   18.8   18.1  1013.8  0.00  0.00   0.000   0.002   24.3    46   12.0   24.2   8.53  .0731    117    1    100.0    5 
22/05/18  10:30   18.8   18.9   18.8    66   12.3  10.0     N   0.83  16.0   NNE   17.7   18.8   17.7  1013.9  0.00  0.00   0.000   0.002   24.4    45   11.7   24.2   8.43  .0731    117    1    100.0    5 
22/05/18  10:35   18.7   18.8   18.7    66   12.2  10.0   NNE   0.83  17.0     N   17.5   18.6   17.4  1013.9  0.00  0.00   0.000   0.001   24.4    45   11.7   24.2   8.43  .0731    117    1    100.0    5 
22/05/18  10:40   18.7   18.7   18.6    66   12.2   8.0   NNE   0.67  13.0   NNE   18.3   18.6   18.2  1013.9  0.00  0.00   0.000   0.001   24.4    45   11.7   24.2   8.43  .0731    116    1    100.0    5 
22/05/18  10:45   18.7   18.7   18.7    66   12.2   6.0   NNE   0.50  11.0    NE   18.7   18.6   18.6  1013.9  0.00  0.00   0.000   0.001   24.4    45   11.7   24.2   8.43  .0731    117    1    100.0    5 
22/05/18  10:50   18.8   18.9   18.7    66   12.3   9.0   NNE   0.75  14.0    NE   18.1   18.8   18.1  1014.0  0.00  0.00   0.000   0.002   24.5    45   11.8   24.3   8.43  .0731    116    1    100.0    5 
22/05/18  10:55   18.9   18.9   18.9    65   12.2  10.0     N   0.83  16.0     N   17.8   18.8   17.7  1014.0  0.00  0.00   0.000   0.002   24.6    45   11.8   24.3   8.43  .0731    115    1    100.0    5 
22/05/18  11:00   18.9   18.9   18.9    65   12.2   7.0     N   0.58  12.0   NNE   18.9   18.8   18.8  1014.0  0.00  0.00   0.000   0.002   24.6    45   11.8   24.3   8.43  .0731    117    1    100.0    5 
22/05/18  11:05   19.1   19.1   18.9    65   12.3   8.0   NNE   0.67  14.0   NNE   18.7   19.0   18.7  1014.1  0.00  0.00   0.000   0.003   24.6    45   11.8   24.3   8.43  .0731    117    1    100.0    5 
22/05/18  11:10   19.2   19.2   19.1    64   12.2   8.0   NNE   0.67  15.0   NNE   18.9   19.1   18.8  1014.1  0.00  0.00   0.000   0.003   24.6    44   11.5   24.3   8.22  .0731    117    1    100.0    5 
22/05/18  11:15   19.4   19.4   19.2    64   12.5   7.0   NNE   0.58  12.0   NNE   19.4   19.4   19.4  1014.2  0.00  0.00   0.000   0.004   24.7    45   11.9   24.4   8.42  .0731    115    1    100.0    5 
22/05/18  11:20   19.7   19.7   19.4    63   12.4   7.0     N   0.58  12.0     N   19.7   19.6   19.6  1014.2  0.00  0.00   0.000   0.005   24.7    45   11.9   24.4   8.42  .0731    118    1    100.0    5 
22/05/18  11:25   19.9   19.9   19.7    64   12.9   9.0     N   0.75  15.0     N   19.1   19.9   19.2  1014.2  0.00  0.00   0.000   0.005   24.7    45   12.0   24.5   8.42  .0731    117    1    100.0    5 
22/05/18  11:30   20.3   20.3   19.9    64   13.2  10.0   NNE   0.83  16.0   NNE   19.1   20.2   19.1  1014.1  0.00  0.00   0.000   0.007   24.8    45   12.0   24.5   8.42  .0730    117    1    100.0    5 
22/05/18  11:35   20.8   20.8   20.3    62   13.3   9.0     N   0.75  16.0   NNE   20.1   20.6   19.8  1014.1  0.00  0.00   0.000   0.009   24.8    45   12.0   24.5   8.42  .0730    117    1    100.0    5 
22/05/18  11:40   21.4   21.4   20.8    61   13.6  10.0     N   0.83  17.0   NNW   20.2   21.1   19.9  1014.0  0.00  0.00   0.000   0.011   24.8    45   12.1   24.6   8.42  .0730    117    1    100.0    5 
22/05/18  11:45   21.7   21.7   21.4    60   13.6  10.0     N   0.83  16.0   NNW   20.5   21.4   20.2  1014.0  0.00  0.00   0.000   0.012   24.9    45   12.1   24.6   8.41  .0730    116    1    100.0    5 
22/05/18  11:50   21.9   21.9   21.7    59   13.5   6.0   NNE   0.50  17.0   NNE   21.9   21.7   21.7  1014.0  0.00  0.00   0.000   0.012   24.9    45   12.1   24.6   8.41  .0730    115    1    100.0    5 
22/05/18  11:55   22.1   22.1   21.9    58   13.4   8.0   NNE   0.67  16.0   NNE   21.8   21.8   21.6  1014.2  0.00  0.00   0.000   0.013   24.9    45   12.2   24.7   8.41  .0730    117    1    100.0    5 
22/05/18  12:00   22.2   22.2   22.1    58   13.6   6.0   NNE   0.50  12.0    NE   22.2   22.1   22.1  1014.2  0.00  0.00   0.000   0.014   25.1    45   12.3   24.8   8.41  .0730    116    1    100.0    5 
22/05/18  12:05   22.4   22.4   22.2    58   13.8   4.0     N   0.33   8.0     N   22.4   22.4   22.4  1014.3  0.00  0.00   0.000   0.014   25.1    45   12.3   24.8   8.41  .0729    117    1    100.0    5 
22/05/18  12:10   22.7   22.7   22.4    57   13.8   5.0   NNE   0.42  14.0   NNE   22.7   22.8   22.8  1014.3  0.00  0.00   0.000   0.015   25.2    44   12.0   24.9   8.20  .0730    116    1    100.0    5 
22/05/18  12:15   22.7   22.8   22.7    55   13.2   7.0   NNW   0.58  11.0   NNW   22.7   22.7   22.7  1014.3  0.00  0.00   0.000   0.015   25.3    45   12.5   25.1   8.40  .0729    117    1    100.0    5 
22/05/18  12:20   22.7   22.7   22.7    57   13.8   5.0   NNE   0.42  12.0   NNE   22.7   22.8   22.8  1014.3  0.00  0.00   0.000   0.015   25.3    45   12.5   25.1   8.40  .0729    117    1    100.0    5 
22/05/18  12:25   23.0   23.0   22.7    57   14.0   5.0    NE   0.42  11.0    NE   23.0   23.2   23.2  1014.3  0.00  0.00   0.000   0.016   25.3    44   12.2   25.1   8.20  .0729    117    1    100.0    5 
22/05/18  12:30   23.3   23.3   23.0    56   14.0   4.0     N   0.33   9.0     N   23.3   23.4   23.4  1014.3  0.00  0.00   0.000   0.017   25.4    44   12.2   25.1   8.20  .0729    117    1    100.0    5 
22/05/18  12:35   23.3   23.3   23.3    55   13.7   7.0     N   0.58  12.0   NNE   23.3   23.4   23.4  1014.2  0.00  0.00   0.000   0.017   25.5    44   12.3   25.2   8.19  .0729    117    1    100.0    5 
22/05/18  12:40   23.3   23.3   23.3    56   14.1   6.0   NNE   0.50  14.0   NNE   23.3   23.5   23.5  1014.3  0.00  0.00   0.000   0.017   25.5    44   12.3   25.2   8.19  .0729    117    1    100.0    5 
22/05/18  12:45   23.6   23.6   23.3    55   14.0   7.0     N   0.58  13.0     N   23.6   23.7   23.7  1014.2  0.00  0.00   0.000   0.018   25.6    44   12.4   25.3   8.19  .0728    117    1    100.0    5 
22/05/18  12:50   23.6   23.6   23.6    55   14.0   5.0     N   0.42  10.0   NNW   23.6   23.8   23.8  1014.3  0.00  0.00   0.000   0.018   25.7    44   12.5   25.4   8.19  .0728    117    1    100.0    5 
22/05/18  12:55   23.8   23.8   23.6    55   14.2   5.0   NNE   0.42  11.0   NNE   23.8   24.1   24.1  1014.3  0.00  0.00   0.000   0.019   25.7    45   12.9   25.5   8.38  .0728    117    1    100.0    5 
22/05/18  13:00   24.1   24.1   23.8    54   14.2   7.0   NNE   0.58  13.0    NE   24.1   24.3   24.3  1014.3  0.00  0.00   0.000   0.020   25.8    46   13.3   25.6   8.48  .0727    117    1    100.0    5 
22/05/18  13:05   24.3   24.3   24.1    54   14.4   7.0    NE   0.58  13.0    NE   24.3   24.4   24.4  1014.3  0.00  0.00   0.000   0.021   25.9    46   13.4   25.8   8.48  .0727    117    1    100.0    5 
22/05/18  13:10   24.5   24.5   24.3    52   14.0   7.0   NNE   0.58  15.0    NE   24.5   24.6   24.6  1014.4  0.00  0.00   0.000   0.021   26.0    46   13.5   25.9   8.47  .0727    117    1    100.0    5 
22/05/18  13:15   24.5   24.5   24.4    53   14.3   7.0   NNE   0.58  14.0   NNE   24.5   24.6   24.6  1014.5  0.00  0.00   0.000   0.021   26.1    46   13.5   25.9   8.47  .0726    117    1    100.0    5 
22/05/18  13:20   24.5   24.5   24.5    52   14.0   8.0   NNE   0.67  15.0   NNE   24.2   24.6   24.3  1014.4  0.00  0.00   0.000   0.021   26.1    46   13.6   26.0   8.47  .0726    117    1    100.0    5 
22/05/18  13:25   24.7   24.7   24.5    53   14.4   6.0   NNE   0.50  16.0     N   24.7   24.7   24.7  1014.5  0.00  0.00   0.000   0.022   26.2    46   13.6   26.1   8.47  .0726    118    1    100.0    5 
22/05/18  13:30   24.8   24.8   24.7    52   14.3   4.0   NNE   0.33  10.0   NNE   24.8   24.8   24.8  1014.4  0.00  0.00   0.000   0.023   26.2    45   13.3   26.1   8.37  .0726    116    1    100.0    5 
22/05/18  13:35   25.1   25.1   24.8    51   14.2   5.0   NNE   0.42  11.0    NE   25.1   25.0   25.0  1014.5  0.00  0.00   0.000   0.023   26.2    45   13.3   26.1   8.37  .0726    117    1    100.0    5 
22/05/18  13:40   25.2   25.2   25.1    52   14.6   8.0   NNE   0.67  16.0   NNE   24.9   25.2   24.9  1014.5  0.00  0.00   0.000   0.024   26.3    46   13.8   26.2   8.46  .0726    117    1    100.0    5 
22/05/18  13:45   25.2   25.2   25.2    52   14.6   7.0     N   0.58  13.0   NNE   25.2   25.2   25.2  1014.5  0.00  0.00   0.000   0.024   26.4    46   13.8   26.3   8.46  .0726    117    1    100.0    5 
22/05/18  13:50   25.3   25.3   25.2    51   14.4   7.0   NNW   0.58  13.0     N   25.3   25.3   25.3  1014.5  0.00  0.00   0.000   0.024   26.4    46   13.9   26.3   8.46  .0725    117    1    100.0    5 
22/05/18  13:55   25.2   25.3   25.2    52   14.6   9.0   NNE   0.75  16.0    NE   24.5   25.2   24.6  1014.5  0.00  0.00   0.000   0.024   26.5    45   13.6   26.3   8.36  .0725    116    1    100.0    5 
22/05/18  14:00   25.1   25.2   25.1    52   14.6   8.0     N   0.67  14.0     N   24.8   25.1   24.8  1014.5  0.00  0.00   0.000   0.024   26.6    45   13.6   26.3   8.35  .0725    117    1    100.0    5 
22/05/18  14:05   25.3   25.3   25.1    51   14.4   6.0     N   0.50  11.0     N   25.3   25.3   25.3  1014.5  0.00  0.00   0.000   0.024   26.6    45   13.7   26.4   8.35  .0725    117    1    100.0    5 
22/05/18  14:10   25.5   25.5   25.3    51   14.6   6.0   NNE   0.50  12.0   NNE   25.5   25.6   25.6  1014.5  0.00  0.00   0.000   0.025   26.7    45   13.7   26.4   8.35  .0725    117    1    100.0    5 
22/05/18  14:15   25.6   25.6   25.5    50   14.4   4.0     N   0.33   9.0   NNE   25.6   25.6   25.6  1014.5  0.00  0.00   0.000   0.025   26.7    45   13.8   26.5   8.35  .0725    117    1    100.0    5 
22/05/18  14:20   25.8   25.8   25.6    51   14.9   5.0   NNE   0.42  13.0   NNE   25.8   25.9   25.9  1014.5  0.00  0.00   0.000   0.026   26.8    45   13.9   26.6   8.34  .0724    117    1    100.0    5 
22/05/18  14:25   25.8   25.8   25.8    50   14.6   7.0   NNE   0.58  12.0   NNE   25.8   25.9   25.9  1014.6  0.00  0.00   0.000   0.026   26.8    45   13.9   26.6   8.34  .0724    117    1    100.0    5 
22/05/18  14:30   25.8   25.8   25.8    50   14.6   5.0   NNE   0.42  10.0   NNE   25.8   25.8   25.8  1014.6  0.00  0.00   0.000   0.026   26.9    45   14.0   26.7   8.34  .0724    118    1    100.0    5 
22/05/18  14:35   25.9   25.9   25.8    50   14.7   7.0   NNE   0.58  13.0   NNE   25.9   25.9   25.9  1014.6  0.00  0.00   0.000   0.026   27.0    45   14.1   26.8   8.34  .0724    117    1    100.0    5 
22/05/18  14:40   25.4   26.0   25.4    51   14.6   4.0   SSE   0.33   8.0   NNE   25.4   25.5   25.5  1014.6  0.00  0.00   0.000   0.025   27.1    45   14.1   26.8   8.34  .0724    117    1    100.0    5 
22/05/18  14:45   24.6   25.4   24.6    55   15.0   1.0   SSE   0.08   4.0   SSE   24.6   24.8   24.8  1014.8  0.00  0.00   0.000   0.022   27.1    45   14.2   26.9   8.33  .0724    116    1    100.0    5 
22/05/18  14:50   24.2   24.6   24.2    53   14.0   3.0   SSE   0.25   6.0   SSE   24.2   24.3   24.3  1014.7  0.00  0.00   0.000   0.020   27.2    45   14.2   26.9   8.33  .0723    117    1    100.0    5 
22/05/18  14:55   23.3   24.1   23.3    57   14.3   1.0     S   0.08   3.0     S   23.3   23.5   23.5  1014.7  0.00  0.00   0.000   0.017   27.2    45   14.3   27.0   8.33  .0723    117    1    100.0    5 
22/05/18  15:00   23.2   23.3   23.2    61   15.3   3.0     S   0.25   6.0     S   23.2   23.6   23.6  1014.7  0.00  0.00   0.000   0.017   27.2    45   14.3   27.0   8.33  .0723    117    1    100.0    5 
22/05/18  15:05   23.2   23.3   23.2    57   14.2   3.0     S   0.25   8.0   SSW   23.2   23.3   23.3  1014.6  0.00  0.00   0.000   0.017   27.3    46   14.6   27.2   8.45  .0723    116    1    100.0    5 
22/05/18  15:10   23.0   23.3   23.0    56   13.7   3.0   NNE   0.25   9.0   NNE   23.0   23.1   23.1  1014.5  0.00  0.00   0.000   0.016   27.3    46   14.7   27.2   8.45  .0723    116    1    100.0    5 
22/05/18  15:15   23.2   23.2   22.9    59   14.7   2.0    NE   0.17   5.0   NNE   23.2   23.4   23.4  1014.5  0.00  0.00   0.000   0.017   27.4    46   14.7   27.3   8.45  .0722    117    1    100.0    5 
22/05/18  15:20   23.3   23.6   23.2    58   14.5   5.0   SSE   0.42   8.0   SSE   23.3   23.6   23.6  1014.5  0.00  0.00   0.000   0.017   27.4    46   14.8   27.3   8.45  .0722    117    1    100.0    5 
22/05/18  15:25   22.3   23.2   22.3    61   14.4   4.0   SSW   0.33   7.0   SSW   22.3   22.3   22.3  1014.5  0.00  0.00   0.000   0.014   27.5    46   14.8   27.4   8.45  .0722    117    1    100.0    5 
22/05/18  15:30   21.3   22.3   21.3    64   14.2   4.0   SSW   0.33   6.0   SSW   21.3   21.2   21.2  1014.4  0.00  0.00   0.000   0.010   27.6    45   14.6   27.4   8.32  .0722    116    1    100.0    5 
22/05/18  15:35   21.4   21.4   21.2    67   15.0   5.0     S   0.42  10.0     S   21.4   21.4   21.4  1014.5  0.00  0.00   0.000   0.011   27.6    46   14.9   27.6   8.45  .0722    117    1    100.0    5 
22/05/18  15:40   20.6   21.4   20.6    67   14.3   8.0     S   0.67  11.0     S   20.2   20.7   20.3  1014.5  0.00  0.00   0.000   0.008   27.7    46   15.0   27.7   8.45  .0722    117    1    100.0    5 
22/05/18  15:45   19.9   20.6   19.9    68   13.8   7.0   SSW   0.58  10.0   SSW   19.9   20.1   20.1  1014.5  0.00  0.00   0.000   0.005   27.7    46   15.0   27.7   8.45  .0721    116    1    100.0    5 
22/05/18  15:50   19.7   19.9   19.7    71   14.3   7.0   SSW   0.58  11.0   SSW   19.7   19.9   19.9  1014.4  0.00  0.00   0.000   0.005   27.8    46   15.1   27.8   8.45  .0721    117    1    100.0    5 
22/05/18  15:55   19.2   19.7   19.2    72   14.0   6.0   SSW   0.50   9.0   SSW   19.2   19.4   19.4  1014.5  0.00  0.00   0.000   0.003   27.8    46   15.1   27.8   8.45  .0721    117    1    100.0    5 
22/05/18  16:00   18.8   19.2   18.8    72   13.7   5.0    SW   0.42   8.0    SW   18.8   19.0   19.0  1014.6  0.00  0.00   0.000   0.002   27.8    45   14.8   27.8   8.31  .0721    117    1    100.0    5 
22/05/18  16:05   18.6   18.8   18.6    72   13.5   6.0   WSW   0.50   8.0   WSW   18.6   18.7   18.7  1014.5  0.00  0.00   0.000   0.001   27.8    45   14.8   27.8   8.31  .0721    115    1    100.0    5 
22/05/18  16:10   18.2   18.6   18.2    74   13.5   6.0    SW   0.50   8.0    SW   18.2   18.3   18.3  1014.5  0.00  0.00   0.001   0.000   27.8    45   14.8   27.8   8.31  .0721    117    1    100.0    5 
22/05/18  16:15   18.3   18.3   18.2    76   14.0   5.0    SW   0.42   7.0    SW   18.3   18.5   18.5  1014.5  0.00  0.00   0.000   0.000   27.9    45   14.9   27.9   8.31  .0721    117    1    100.0    5 
22/05/18  16:20   18.5   18.6   18.3    75   14.0   6.0    SW   0.50   8.0    SW   18.5   18.7   18.7  1014.5  0.00  0.00   0.000   0.001   27.9    45   14.9   28.0   8.30  .0721    117    1    100.0    5 
22/05/18  16:25   18.5   18.6   18.4    75   14.0   7.0   SSW   0.58   9.0    SW   18.5   18.7   18.7  1014.4  0.00  0.00   0.000   0.001   27.9    45   14.9   28.0   8.30  .0721    117    1    100.0    5 
22/05/18  16:30   18.3   18.5   18.3    76   14.0   6.0   SSW   0.50   9.0   SSW   18.3   18.6   18.6  1014.5  0.00  0.00   0.000   0.000   28.0    45   15.0   28.1   8.30  .0721    116    1    100.0    5 
22/05/18  16:35   18.4   18.4   18.3    77   14.3   6.0   WSW   0.50   9.0   WSW   18.4   18.7   18.7  1014.5  0.00  0.00   0.000   0.000   28.0    45   15.0   28.1   8.30  .0721    115    1    100.0    5 
22/05/18  16:40   18.2   18.6   18.2    76   13.9   7.0   WSW   0.58  11.0    SW   18.2   18.4   18.4  1014.5  0.00  0.00   0.000   0.000   28.1    45   15.0   28.2   8.30  .0721    116    1    100.0    5 
22/05/18  16:45   17.8   18.2   17.8    77   13.7   8.0   WSW   0.67  10.0   WSW   17.3   17.9   17.5  1014.5  0.00  0.00   0.002   0.000   28.1    45   15.1   28.3   8.30  .0720    117    1    100.0    5 
22/05/18  16:50   18.0   18.1   17.8    77   13.9   7.0    SW   0.58   9.0    SW   18.0   18.2   18.2  1014.4  0.00  0.00   0.001   0.000   28.1    45   15.1   28.3   8.30  .0720    117    1    100.0    5 
22/05/18  16:55   18.0   18.0   17.9    78   14.1   8.0   WSW   0.67  10.0   WSW   17.6   18.2   17.8  1014.5  0.00  0.00   0.001   0.000   28.2    45   15.1   28.3   8.30  .0720    117    1    100.0    5 
22/05/18  17:00   18.1   18.1   18.0    77   14.0   6.0     W   0.50  10.0   WSW   18.1   18.3   18.3  1014.5  0.00  0.00   0.001   0.000   28.1    45   15.1   28.3   8.30  .0720    117    1    100.0    5 
22/05/18  17:05   18.2   18.2   18.1    76   13.9   4.0   WSW   0.33  11.0   WSW   18.2   18.3   18.3  1014.6  0.00  0.00   0.001   0.000   28.2    45   15.1   28.3   8.30  .0720    117    1    100.0    5 
22/05/18  17:10   18.2   18.2   18.1    77   14.1   9.0   WSW   0.75  14.0   WSW   17.3   18.4   17.6  1014.5  0.00  0.00   0.001   0.000   28.2    45   15.1   28.3   8.30  .0720    117    1    100.0    5 
22/05/18  17:15   18.5   18.5   18.2    75   14.0   9.0   WSW   0.75  13.0     W   17.7   18.7   17.9  1014.4  0.00  0.00   0.000   0.001   28.2    45   15.1   28.3   8.30  .0720    115    1    100.0    5 
22/05/18  17:20   19.1   19.1   18.6    75   14.5   5.0    SW   0.42  11.0    SW   19.1   19.4   19.4  1014.5  0.00  0.00   0.000   0.003   28.2    45   15.1   28.3   8.30  .0720    116    1    100.0    5 
22/05/18  17:25   20.6   20.6   19.1    68   14.5   6.0   NNE   0.50  12.0   NNE   20.6   20.7   20.7  1014.5  0.00  0.00   0.000   0.008   28.2    45   15.2   28.4   8.29  .0720    117    1    100.0    5 
22/05/18  17:30   22.3   22.3   20.7    61   14.4   9.0   NNE   0.75  16.0   NNE   21.5   22.3   21.5  1014.5  0.00  0.00   0.000   0.014   28.3    44   14.9   28.4   8.15  .0720    117    1    100.0    5 
22/05/18  17:35   23.2   23.2   22.3    53   13.1   8.0     N   0.67  16.0   NNE   22.9   23.2   22.9  1014.6  0.00  0.00   0.000   0.017   28.3    44   14.9   28.4   8.15  .0720    117    1    100.0    5 
22/05/18  17:40   23.6   23.6   23.2    53   13.5   9.0   NNE   0.75  15.0     N   22.9   23.7   23.0  1014.6  0.00  0.00   0.000   0.018   28.3    44   14.9   28.5   8.15  .0720    118    1    100.0    5 
22/05/18  17:45   24.1   24.1   23.7    50   13.0  10.0   NNE   0.83  16.0   NNE   23.0   24.2   23.1  1014.6  0.00  0.00   0.000   0.020   28.4    44   15.0   28.6   8.15  .0720    116    1    100.0    5 
22/05/18  17:50   24.3   24.3   24.1    50   13.2  11.0   NNE   0.92  18.0   NNE   23.1   24.3   23.1  1014.6  0.00  0.00   0.000   0.021   28.4    43   14.6   28.5   7.99  .0720    115    1    100.0    5 
22/05/18  17:55   24.5   24.5   24.3    47   12.4  12.0   NNE   1.00  19.0   NNE   23.0   24.3   22.8  1014.6  0.00  0.00   0.000   0.021   28.4    42   14.2   28.4   7.85  .0720    117    1    100.0    5 
22/05/18  18:00   24.6   24.6   24.5    47   12.5   9.0   NNE   0.75  16.0     N   23.9   24.4   23.7  1014.6  0.00  0.00   0.000   0.022   28.4    43   14.7   28.6   7.99  .0720    117    1    100.0    5 
22/05/18  18:05   24.7   24.7   24.6    47   12.6  10.0   NNE   0.83  19.0   NNE   23.7   24.6   23.5  1014.7  0.00  0.00   0.000   0.022   28.5    43   14.7   28.7   7.98  .0720    117    1    100.0    5 
104650